<?xml version="1.0" encoding="UTF-8" standalone="no" ?>
<gpx xmlns="http://www.topografix.com/GPX/1/1" xmlns:xsi="http://www.w3.org/2001/XMLSchema-instance" xsi:schemaLocation="http://www.topografix.com/GPX/1/1 http://www.topografix.com/GPX/1/1/gpx.xsd" version="1.1" creator="VisuGPX - https://www.visugpx.com">
  <metadata>
    <name>MTB Carros France</name>
    <desc><![CDATA[short ride near Carros france
physically challenging 
a nice descent single track]]></desc>
  </metadata>
  <trk>
    <name><![CDATA[31 Aug 2016 18:18:01]]></name>
    <trkseg>
      <trkpt lat="43.78602" lon="7.17608">
        <ele>464</ele>
        <time>2016-08-31T16:18:02.755Z</time>
      </trkpt>
      <trkpt lat="43.78583" lon="7.17591">
        <ele>450</ele>
        <time>2016-08-31T16:18:03.000Z</time>
      </trkpt>
      <trkpt lat="43.78583" lon="7.17604">
        <ele>426</ele>
        <time>2016-08-31T16:18:27.000Z</time>
      </trkpt>
      <trkpt lat="43.78585" lon="7.17619">
        <ele>425</ele>
        <time>2016-08-31T16:18:30.000Z</time>
      </trkpt>
      <trkpt lat="43.78591" lon="7.17635">
        <ele>424</ele>
        <time>2016-08-31T16:18:33.000Z</time>
      </trkpt>
      <trkpt lat="43.78599" lon="7.1765">
        <ele>424</ele>
        <time>2016-08-31T16:18:36.000Z</time>
      </trkpt>
      <trkpt lat="43.78606" lon="7.17664">
        <ele>425</ele>
        <time>2016-08-31T16:18:39.000Z</time>
      </trkpt>
      <trkpt lat="43.78621" lon="7.17685">
        <ele>423</ele>
        <time>2016-08-31T16:18:44.000Z</time>
      </trkpt>
      <trkpt lat="43.78634" lon="7.17701">
        <ele>421</ele>
        <time>2016-08-31T16:18:47.000Z</time>
      </trkpt>
      <trkpt lat="43.78641" lon="7.17714">
        <ele>420</ele>
        <time>2016-08-31T16:18:49.000Z</time>
      </trkpt>
      <trkpt lat="43.7865" lon="7.17728">
        <ele>419</ele>
        <time>2016-08-31T16:18:51.000Z</time>
      </trkpt>
      <trkpt lat="43.78664" lon="7.17748">
        <ele>417</ele>
        <time>2016-08-31T16:18:54.000Z</time>
      </trkpt>
      <trkpt lat="43.78679" lon="7.17768">
        <ele>416</ele>
        <time>2016-08-31T16:18:57.000Z</time>
      </trkpt>
      <trkpt lat="43.78688" lon="7.17782">
        <ele>416</ele>
        <time>2016-08-31T16:18:59.000Z</time>
      </trkpt>
      <trkpt lat="43.78704" lon="7.17801">
        <ele>415</ele>
        <time>2016-08-31T16:19:02.000Z</time>
      </trkpt>
      <trkpt lat="43.78719" lon="7.17823">
        <ele>414</ele>
        <time>2016-08-31T16:19:05.000Z</time>
      </trkpt>
      <trkpt lat="43.78731" lon="7.17847">
        <ele>413</ele>
        <time>2016-08-31T16:19:08.000Z</time>
      </trkpt>
      <trkpt lat="43.78737" lon="7.17875">
        <ele>414</ele>
        <time>2016-08-31T16:19:11.000Z</time>
      </trkpt>
      <trkpt lat="43.78738" lon="7.17894">
        <ele>414</ele>
        <time>2016-08-31T16:19:13.000Z</time>
      </trkpt>
      <trkpt lat="43.78738" lon="7.17924">
        <ele>414</ele>
        <time>2016-08-31T16:19:16.000Z</time>
      </trkpt>
      <trkpt lat="43.78739" lon="7.17943">
        <ele>412</ele>
        <time>2016-08-31T16:19:18.000Z</time>
      </trkpt>
      <trkpt lat="43.78742" lon="7.17973">
        <ele>413</ele>
        <time>2016-08-31T16:19:21.000Z</time>
      </trkpt>
      <trkpt lat="43.78749" lon="7.18001">
        <ele>414</ele>
        <time>2016-08-31T16:19:24.000Z</time>
      </trkpt>
      <trkpt lat="43.78753" lon="7.18013">
        <ele>413</ele>
        <time>2016-08-31T16:19:26.000Z</time>
      </trkpt>
      <trkpt lat="43.78764" lon="7.18033">
        <ele>413</ele>
        <time>2016-08-31T16:19:30.000Z</time>
      </trkpt>
      <trkpt lat="43.78772" lon="7.18052">
        <ele>414</ele>
        <time>2016-08-31T16:19:34.000Z</time>
      </trkpt>
      <trkpt lat="43.78776" lon="7.18065">
        <ele>416</ele>
        <time>2016-08-31T16:19:37.000Z</time>
      </trkpt>
      <trkpt lat="43.78782" lon="7.18075">
        <ele>416</ele>
        <time>2016-08-31T16:19:40.000Z</time>
      </trkpt>
      <trkpt lat="43.78793" lon="7.18097">
        <ele>416</ele>
        <time>2016-08-31T16:19:47.000Z</time>
      </trkpt>
      <trkpt lat="43.78801" lon="7.18113">
        <ele>416</ele>
        <time>2016-08-31T16:19:52.000Z</time>
      </trkpt>
      <trkpt lat="43.78808" lon="7.18133">
        <ele>417</ele>
        <time>2016-08-31T16:19:58.000Z</time>
      </trkpt>
      <trkpt lat="43.78814" lon="7.18149">
        <ele>422</ele>
        <time>2016-08-31T16:20:04.000Z</time>
      </trkpt>
      <trkpt lat="43.78821" lon="7.18165">
        <ele>422</ele>
        <time>2016-08-31T16:20:10.000Z</time>
      </trkpt>
      <trkpt lat="43.78829" lon="7.18178">
        <ele>420</ele>
        <time>2016-08-31T16:20:15.000Z</time>
      </trkpt>
      <trkpt lat="43.78839" lon="7.18198">
        <ele>421</ele>
        <time>2016-08-31T16:20:21.000Z</time>
      </trkpt>
      <trkpt lat="43.78845" lon="7.18209">
        <ele>421</ele>
        <time>2016-08-31T16:20:24.000Z</time>
      </trkpt>
      <trkpt lat="43.78851" lon="7.18221">
        <ele>421</ele>
        <time>2016-08-31T16:20:27.000Z</time>
      </trkpt>
      <trkpt lat="43.78856" lon="7.18234">
        <ele>421</ele>
        <time>2016-08-31T16:20:30.000Z</time>
      </trkpt>
      <trkpt lat="43.78863" lon="7.18247">
        <ele>421</ele>
        <time>2016-08-31T16:20:33.000Z</time>
      </trkpt>
      <trkpt lat="43.78875" lon="7.18262">
        <ele>420</ele>
        <time>2016-08-31T16:20:37.000Z</time>
      </trkpt>
      <trkpt lat="43.78893" lon="7.18274">
        <ele>418</ele>
        <time>2016-08-31T16:20:42.000Z</time>
      </trkpt>
      <trkpt lat="43.78905" lon="7.18289">
        <ele>418</ele>
        <time>2016-08-31T16:20:45.000Z</time>
      </trkpt>
      <trkpt lat="43.78916" lon="7.18306">
        <ele>419</ele>
        <time>2016-08-31T16:20:48.000Z</time>
      </trkpt>
      <trkpt lat="43.78924" lon="7.18317">
        <ele>419</ele>
        <time>2016-08-31T16:20:50.000Z</time>
      </trkpt>
      <trkpt lat="43.78935" lon="7.18335">
        <ele>420</ele>
        <time>2016-08-31T16:20:53.000Z</time>
      </trkpt>
      <trkpt lat="43.78946" lon="7.18344">
        <ele>420</ele>
        <time>2016-08-31T16:20:56.000Z</time>
      </trkpt>
      <trkpt lat="43.78957" lon="7.18349">
        <ele>420</ele>
        <time>2016-08-31T16:20:59.000Z</time>
      </trkpt>
      <trkpt lat="43.78973" lon="7.18357">
        <ele>420</ele>
        <time>2016-08-31T16:21:04.000Z</time>
      </trkpt>
      <trkpt lat="43.78983" lon="7.18361">
        <ele>419</ele>
        <time>2016-08-31T16:21:07.000Z</time>
      </trkpt>
      <trkpt lat="43.78995" lon="7.18365">
        <ele>419</ele>
        <time>2016-08-31T16:21:10.000Z</time>
      </trkpt>
      <trkpt lat="43.79004" lon="7.18368">
        <ele>419</ele>
        <time>2016-08-31T16:21:12.000Z</time>
      </trkpt>
      <trkpt lat="43.7902" lon="7.18375">
        <ele>418</ele>
        <time>2016-08-31T16:21:15.000Z</time>
      </trkpt>
      <trkpt lat="43.79037" lon="7.18381">
        <ele>419</ele>
        <time>2016-08-31T16:21:18.000Z</time>
      </trkpt>
      <trkpt lat="43.79049" lon="7.18386">
        <ele>417</ele>
        <time>2016-08-31T16:21:20.000Z</time>
      </trkpt>
      <trkpt lat="43.79067" lon="7.18394">
        <ele>416</ele>
        <time>2016-08-31T16:21:23.000Z</time>
      </trkpt>
      <trkpt lat="43.7908" lon="7.18399">
        <ele>415</ele>
        <time>2016-08-31T16:21:25.000Z</time>
      </trkpt>
      <trkpt lat="43.79092" lon="7.18405">
        <ele>416</ele>
        <time>2016-08-31T16:21:27.000Z</time>
      </trkpt>
      <trkpt lat="43.79113" lon="7.18417">
        <ele>416</ele>
        <time>2016-08-31T16:21:31.000Z</time>
      </trkpt>
      <trkpt lat="43.79128" lon="7.18427">
        <ele>416</ele>
        <time>2016-08-31T16:21:34.000Z</time>
      </trkpt>
      <trkpt lat="43.79141" lon="7.1843">
        <ele>415</ele>
        <time>2016-08-31T16:21:37.000Z</time>
      </trkpt>
      <trkpt lat="43.79155" lon="7.18432">
        <ele>417</ele>
        <time>2016-08-31T16:21:40.000Z</time>
      </trkpt>
      <trkpt lat="43.79165" lon="7.18432">
        <ele>419</ele>
        <time>2016-08-31T16:21:43.000Z</time>
      </trkpt>
      <trkpt lat="43.79174" lon="7.18429">
        <ele>418</ele>
        <time>2016-08-31T16:21:46.000Z</time>
      </trkpt>
      <trkpt lat="43.79183" lon="7.18426">
        <ele>419</ele>
        <time>2016-08-31T16:21:49.000Z</time>
      </trkpt>
      <trkpt lat="43.79197" lon="7.18423">
        <ele>421</ele>
        <time>2016-08-31T16:21:55.000Z</time>
      </trkpt>
      <trkpt lat="43.79209" lon="7.18421">
        <ele>424</ele>
        <time>2016-08-31T16:22:00.000Z</time>
      </trkpt>
      <trkpt lat="43.79222" lon="7.18417">
        <ele>426</ele>
        <time>2016-08-31T16:22:06.000Z</time>
      </trkpt>
      <trkpt lat="43.79234" lon="7.18414">
        <ele>428</ele>
        <time>2016-08-31T16:22:12.000Z</time>
      </trkpt>
      <trkpt lat="43.79247" lon="7.1841">
        <ele>427</ele>
        <time>2016-08-31T16:22:18.000Z</time>
      </trkpt>
      <trkpt lat="43.79258" lon="7.18405">
        <ele>429</ele>
        <time>2016-08-31T16:22:23.000Z</time>
      </trkpt>
      <trkpt lat="43.79269" lon="7.18395">
        <ele>428</ele>
        <time>2016-08-31T16:22:29.000Z</time>
      </trkpt>
      <trkpt lat="43.79279" lon="7.18387">
        <ele>429</ele>
        <time>2016-08-31T16:22:34.000Z</time>
      </trkpt>
      <trkpt lat="43.7929" lon="7.18379">
        <ele>428</ele>
        <time>2016-08-31T16:22:40.000Z</time>
      </trkpt>
      <trkpt lat="43.79298" lon="7.18374">
        <ele>430</ele>
        <time>2016-08-31T16:22:45.000Z</time>
      </trkpt>
      <trkpt lat="43.79312" lon="7.18371">
        <ele>430</ele>
        <time>2016-08-31T16:22:52.000Z</time>
      </trkpt>
      <trkpt lat="43.79323" lon="7.18364">
        <ele>431</ele>
        <time>2016-08-31T16:22:58.000Z</time>
      </trkpt>
      <trkpt lat="43.79334" lon="7.18361">
        <ele>433</ele>
        <time>2016-08-31T16:23:04.000Z</time>
      </trkpt>
      <trkpt lat="43.79348" lon="7.18352">
        <ele>432</ele>
        <time>2016-08-31T16:23:11.000Z</time>
      </trkpt>
      <trkpt lat="43.79356" lon="7.18345">
        <ele>432</ele>
        <time>2016-08-31T16:23:16.000Z</time>
      </trkpt>
      <trkpt lat="43.79365" lon="7.18341">
        <ele>434</ele>
        <time>2016-08-31T16:23:22.000Z</time>
      </trkpt>
      <trkpt lat="43.79375" lon="7.18335">
        <ele>434</ele>
        <time>2016-08-31T16:23:27.000Z</time>
      </trkpt>
      <trkpt lat="43.79385" lon="7.18326">
        <ele>434</ele>
        <time>2016-08-31T16:23:33.000Z</time>
      </trkpt>
      <trkpt lat="43.79396" lon="7.18314">
        <ele>433</ele>
        <time>2016-08-31T16:23:39.000Z</time>
      </trkpt>
      <trkpt lat="43.79407" lon="7.18302">
        <ele>437</ele>
        <time>2016-08-31T16:23:45.000Z</time>
      </trkpt>
      <trkpt lat="43.79417" lon="7.1829">
        <ele>437</ele>
        <time>2016-08-31T16:23:51.000Z</time>
      </trkpt>
      <trkpt lat="43.79425" lon="7.18281">
        <ele>438</ele>
        <time>2016-08-31T16:23:56.000Z</time>
      </trkpt>
      <trkpt lat="43.79432" lon="7.18273">
        <ele>440</ele>
        <time>2016-08-31T16:24:00.000Z</time>
      </trkpt>
      <trkpt lat="43.79445" lon="7.1826">
        <ele>441</ele>
        <time>2016-08-31T16:24:07.000Z</time>
      </trkpt>
      <trkpt lat="43.79455" lon="7.18251">
        <ele>444</ele>
        <time>2016-08-31T16:24:13.000Z</time>
      </trkpt>
      <trkpt lat="43.79466" lon="7.18239">
        <ele>445</ele>
        <time>2016-08-31T16:24:21.000Z</time>
      </trkpt>
      <trkpt lat="43.79475" lon="7.1823">
        <ele>446</ele>
        <time>2016-08-31T16:24:26.000Z</time>
      </trkpt>
      <trkpt lat="43.79483" lon="7.18224">
        <ele>448</ele>
        <time>2016-08-31T16:24:31.000Z</time>
      </trkpt>
      <trkpt lat="43.79497" lon="7.18213">
        <ele>448</ele>
        <time>2016-08-31T16:24:38.000Z</time>
      </trkpt>
      <trkpt lat="43.79505" lon="7.18208">
        <ele>449</ele>
        <time>2016-08-31T16:24:43.000Z</time>
      </trkpt>
      <trkpt lat="43.79517" lon="7.18199">
        <ele>449</ele>
        <time>2016-08-31T16:24:49.000Z</time>
      </trkpt>
      <trkpt lat="43.79525" lon="7.18193">
        <ele>452</ele>
        <time>2016-08-31T16:24:54.000Z</time>
      </trkpt>
      <trkpt lat="43.79535" lon="7.18184">
        <ele>451</ele>
        <time>2016-08-31T16:24:59.000Z</time>
      </trkpt>
      <trkpt lat="43.79546" lon="7.18176">
        <ele>451</ele>
        <time>2016-08-31T16:25:05.000Z</time>
      </trkpt>
      <trkpt lat="43.79557" lon="7.18169">
        <ele>451</ele>
        <time>2016-08-31T16:25:11.000Z</time>
      </trkpt>
      <trkpt lat="43.79569" lon="7.1816">
        <ele>452</ele>
        <time>2016-08-31T16:25:18.000Z</time>
      </trkpt>
      <trkpt lat="43.79579" lon="7.18151">
        <ele>454</ele>
        <time>2016-08-31T16:25:24.000Z</time>
      </trkpt>
      <trkpt lat="43.79589" lon="7.18142">
        <ele>454</ele>
        <time>2016-08-31T16:25:30.000Z</time>
      </trkpt>
      <trkpt lat="43.79604" lon="7.1814">
        <ele>453</ele>
        <time>2016-08-31T16:25:37.000Z</time>
      </trkpt>
      <trkpt lat="43.79614" lon="7.18139">
        <ele>453</ele>
        <time>2016-08-31T16:25:42.000Z</time>
      </trkpt>
      <trkpt lat="43.79624" lon="7.18139">
        <ele>454</ele>
        <time>2016-08-31T16:25:47.000Z</time>
      </trkpt>
      <trkpt lat="43.79633" lon="7.1814">
        <ele>456</ele>
        <time>2016-08-31T16:25:52.000Z</time>
      </trkpt>
      <trkpt lat="43.79645" lon="7.1814">
        <ele>459</ele>
        <time>2016-08-31T16:25:58.000Z</time>
      </trkpt>
      <trkpt lat="43.79656" lon="7.18141">
        <ele>463</ele>
        <time>2016-08-31T16:26:03.000Z</time>
      </trkpt>
      <trkpt lat="43.79666" lon="7.18145">
        <ele>463</ele>
        <time>2016-08-31T16:26:08.000Z</time>
      </trkpt>
      <trkpt lat="43.79676" lon="7.18148">
        <ele>462</ele>
        <time>2016-08-31T16:26:13.000Z</time>
      </trkpt>
      <trkpt lat="43.79688" lon="7.18153">
        <ele>463</ele>
        <time>2016-08-31T16:26:19.000Z</time>
      </trkpt>
      <trkpt lat="43.79699" lon="7.18157">
        <ele>464</ele>
        <time>2016-08-31T16:26:25.000Z</time>
      </trkpt>
      <trkpt lat="43.7971" lon="7.18161">
        <ele>466</ele>
        <time>2016-08-31T16:26:31.000Z</time>
      </trkpt>
      <trkpt lat="43.79723" lon="7.18167">
        <ele>468</ele>
        <time>2016-08-31T16:26:38.000Z</time>
      </trkpt>
      <trkpt lat="43.79736" lon="7.18167">
        <ele>468</ele>
        <time>2016-08-31T16:26:46.000Z</time>
      </trkpt>
      <trkpt lat="43.79749" lon="7.18168">
        <ele>469</ele>
        <time>2016-08-31T16:26:53.000Z</time>
      </trkpt>
      <trkpt lat="43.79757" lon="7.18162">
        <ele>469</ele>
        <time>2016-08-31T16:26:58.000Z</time>
      </trkpt>
      <trkpt lat="43.79765" lon="7.1815">
        <ele>471</ele>
        <time>2016-08-31T16:27:04.000Z</time>
      </trkpt>
      <trkpt lat="43.79772" lon="7.18136">
        <ele>473</ele>
        <time>2016-08-31T16:27:11.000Z</time>
      </trkpt>
      <trkpt lat="43.79775" lon="7.18124">
        <ele>473</ele>
        <time>2016-08-31T16:27:16.000Z</time>
      </trkpt>
      <trkpt lat="43.79776" lon="7.18104">
        <ele>475</ele>
        <time>2016-08-31T16:27:24.000Z</time>
      </trkpt>
      <trkpt lat="43.79776" lon="7.18089">
        <ele>475</ele>
        <time>2016-08-31T16:27:29.000Z</time>
      </trkpt>
      <trkpt lat="43.79777" lon="7.18071">
        <ele>477</ele>
        <time>2016-08-31T16:27:35.000Z</time>
      </trkpt>
      <trkpt lat="43.79787" lon="7.18063">
        <ele>478</ele>
        <time>2016-08-31T16:27:41.000Z</time>
      </trkpt>
      <trkpt lat="43.79796" lon="7.18065">
        <ele>480</ele>
        <time>2016-08-31T16:27:46.000Z</time>
      </trkpt>
      <trkpt lat="43.79804" lon="7.18071">
        <ele>481</ele>
        <time>2016-08-31T16:27:50.000Z</time>
      </trkpt>
      <trkpt lat="43.79814" lon="7.18074">
        <ele>482</ele>
        <time>2016-08-31T16:27:55.000Z</time>
      </trkpt>
      <trkpt lat="43.79824" lon="7.18075">
        <ele>483</ele>
        <time>2016-08-31T16:28:00.000Z</time>
      </trkpt>
      <trkpt lat="43.79834" lon="7.18075">
        <ele>486</ele>
        <time>2016-08-31T16:28:05.000Z</time>
      </trkpt>
      <trkpt lat="43.79844" lon="7.18076">
        <ele>485</ele>
        <time>2016-08-31T16:28:09.000Z</time>
      </trkpt>
      <trkpt lat="43.79854" lon="7.18081">
        <ele>486</ele>
        <time>2016-08-31T16:28:14.000Z</time>
      </trkpt>
      <trkpt lat="43.79863" lon="7.1809">
        <ele>489</ele>
        <time>2016-08-31T16:28:19.000Z</time>
      </trkpt>
      <trkpt lat="43.79868" lon="7.181">
        <ele>488</ele>
        <time>2016-08-31T16:28:23.000Z</time>
      </trkpt>
      <trkpt lat="43.79875" lon="7.18111">
        <ele>487</ele>
        <time>2016-08-31T16:28:28.000Z</time>
      </trkpt>
      <trkpt lat="43.79881" lon="7.18121">
        <ele>488</ele>
        <time>2016-08-31T16:28:33.000Z</time>
      </trkpt>
      <trkpt lat="43.79887" lon="7.18132">
        <ele>489</ele>
        <time>2016-08-31T16:28:39.000Z</time>
      </trkpt>
      <trkpt lat="43.79893" lon="7.18144">
        <ele>490</ele>
        <time>2016-08-31T16:28:45.000Z</time>
      </trkpt>
      <trkpt lat="43.79899" lon="7.18155">
        <ele>490</ele>
        <time>2016-08-31T16:28:51.000Z</time>
      </trkpt>
      <trkpt lat="43.79907" lon="7.18162">
        <ele>490</ele>
        <time>2016-08-31T16:28:56.000Z</time>
      </trkpt>
      <trkpt lat="43.79915" lon="7.18167">
        <ele>492</ele>
        <time>2016-08-31T16:29:01.000Z</time>
      </trkpt>
      <trkpt lat="43.79924" lon="7.18163">
        <ele>491</ele>
        <time>2016-08-31T16:29:06.000Z</time>
      </trkpt>
      <trkpt lat="43.79931" lon="7.18152">
        <ele>491</ele>
        <time>2016-08-31T16:29:12.000Z</time>
      </trkpt>
      <trkpt lat="43.79935" lon="7.18139">
        <ele>491</ele>
        <time>2016-08-31T16:29:18.000Z</time>
      </trkpt>
      <trkpt lat="43.79937" lon="7.18127">
        <ele>493</ele>
        <time>2016-08-31T16:29:23.000Z</time>
      </trkpt>
      <trkpt lat="43.79941" lon="7.18115">
        <ele>493</ele>
        <time>2016-08-31T16:29:28.000Z</time>
      </trkpt>
      <trkpt lat="43.79944" lon="7.18102">
        <ele>493</ele>
        <time>2016-08-31T16:29:33.000Z</time>
      </trkpt>
      <trkpt lat="43.79947" lon="7.18088">
        <ele>492</ele>
        <time>2016-08-31T16:29:38.000Z</time>
      </trkpt>
      <trkpt lat="43.79952" lon="7.18077">
        <ele>494</ele>
        <time>2016-08-31T16:29:42.000Z</time>
      </trkpt>
      <trkpt lat="43.79955" lon="7.18062">
        <ele>495</ele>
        <time>2016-08-31T16:29:48.000Z</time>
      </trkpt>
      <trkpt lat="43.79962" lon="7.18047">
        <ele>496</ele>
        <time>2016-08-31T16:30:09.000Z</time>
      </trkpt>
      <trkpt lat="43.7997" lon="7.18031">
        <ele>497</ele>
        <time>2016-08-31T16:30:16.000Z</time>
      </trkpt>
      <trkpt lat="43.79978" lon="7.18015">
        <ele>500</ele>
        <time>2016-08-31T16:30:23.000Z</time>
      </trkpt>
      <trkpt lat="43.79985" lon="7.18003">
        <ele>500</ele>
        <time>2016-08-31T16:30:28.000Z</time>
      </trkpt>
      <trkpt lat="43.79997" lon="7.17991">
        <ele>501</ele>
        <time>2016-08-31T16:30:35.000Z</time>
      </trkpt>
      <trkpt lat="43.80005" lon="7.17986">
        <ele>502</ele>
        <time>2016-08-31T16:30:40.000Z</time>
      </trkpt>
      <trkpt lat="43.80016" lon="7.1798">
        <ele>503</ele>
        <time>2016-08-31T16:30:46.000Z</time>
      </trkpt>
      <trkpt lat="43.80027" lon="7.17977">
        <ele>504</ele>
        <time>2016-08-31T16:30:52.000Z</time>
      </trkpt>
      <trkpt lat="43.80037" lon="7.17974">
        <ele>504</ele>
        <time>2016-08-31T16:30:58.000Z</time>
      </trkpt>
      <trkpt lat="43.80049" lon="7.17972">
        <ele>505</ele>
        <time>2016-08-31T16:31:04.000Z</time>
      </trkpt>
      <trkpt lat="43.80062" lon="7.17966">
        <ele>506</ele>
        <time>2016-08-31T16:31:10.000Z</time>
      </trkpt>
      <trkpt lat="43.80072" lon="7.17963">
        <ele>506</ele>
        <time>2016-08-31T16:31:15.000Z</time>
      </trkpt>
      <trkpt lat="43.80082" lon="7.1796">
        <ele>507</ele>
        <time>2016-08-31T16:31:20.000Z</time>
      </trkpt>
      <trkpt lat="43.80094" lon="7.17955">
        <ele>508</ele>
        <time>2016-08-31T16:31:26.000Z</time>
      </trkpt>
      <trkpt lat="43.80105" lon="7.1795">
        <ele>509</ele>
        <time>2016-08-31T16:31:32.000Z</time>
      </trkpt>
      <trkpt lat="43.80116" lon="7.1794">
        <ele>510</ele>
        <time>2016-08-31T16:31:38.000Z</time>
      </trkpt>
      <trkpt lat="43.80125" lon="7.17931">
        <ele>510</ele>
        <time>2016-08-31T16:31:44.000Z</time>
      </trkpt>
      <trkpt lat="43.8013" lon="7.1792">
        <ele>511</ele>
        <time>2016-08-31T16:31:49.000Z</time>
      </trkpt>
      <trkpt lat="43.80133" lon="7.17904">
        <ele>513</ele>
        <time>2016-08-31T16:31:55.000Z</time>
      </trkpt>
      <trkpt lat="43.80129" lon="7.17892">
        <ele>515</ele>
        <time>2016-08-31T16:32:00.000Z</time>
      </trkpt>
      <trkpt lat="43.80126" lon="7.1787">
        <ele>514</ele>
        <time>2016-08-31T16:32:06.000Z</time>
      </trkpt>
      <trkpt lat="43.80126" lon="7.17847">
        <ele>514</ele>
        <time>2016-08-31T16:32:12.000Z</time>
      </trkpt>
      <trkpt lat="43.80127" lon="7.17835">
        <ele>514</ele>
        <time>2016-08-31T16:32:15.000Z</time>
      </trkpt>
      <trkpt lat="43.80127" lon="7.17816">
        <ele>514</ele>
        <time>2016-08-31T16:32:19.000Z</time>
      </trkpt>
      <trkpt lat="43.80129" lon="7.17799">
        <ele>516</ele>
        <time>2016-08-31T16:32:22.000Z</time>
      </trkpt>
      <trkpt lat="43.80128" lon="7.17771">
        <ele>516</ele>
        <time>2016-08-31T16:32:27.000Z</time>
      </trkpt>
      <trkpt lat="43.80128" lon="7.17748">
        <ele>514</ele>
        <time>2016-08-31T16:32:31.000Z</time>
      </trkpt>
      <trkpt lat="43.80133" lon="7.17727">
        <ele>514</ele>
        <time>2016-08-31T16:32:35.000Z</time>
      </trkpt>
      <trkpt lat="43.80138" lon="7.17702">
        <ele>513</ele>
        <time>2016-08-31T16:32:40.000Z</time>
      </trkpt>
      <trkpt lat="43.80148" lon="7.17679">
        <ele>511</ele>
        <time>2016-08-31T16:32:45.000Z</time>
      </trkpt>
      <trkpt lat="43.80156" lon="7.17667">
        <ele>512</ele>
        <time>2016-08-31T16:32:48.000Z</time>
      </trkpt>
      <trkpt lat="43.80163" lon="7.17655">
        <ele>511</ele>
        <time>2016-08-31T16:32:51.000Z</time>
      </trkpt>
      <trkpt lat="43.80169" lon="7.17644">
        <ele>512</ele>
        <time>2016-08-31T16:32:54.000Z</time>
      </trkpt>
      <trkpt lat="43.8018" lon="7.17626">
        <ele>511</ele>
        <time>2016-08-31T16:32:58.000Z</time>
      </trkpt>
      <trkpt lat="43.80189" lon="7.17613">
        <ele>511</ele>
        <time>2016-08-31T16:33:01.000Z</time>
      </trkpt>
      <trkpt lat="43.80197" lon="7.17597">
        <ele>511</ele>
        <time>2016-08-31T16:33:04.000Z</time>
      </trkpt>
      <trkpt lat="43.80204" lon="7.17582">
        <ele>512</ele>
        <time>2016-08-31T16:33:07.000Z</time>
      </trkpt>
      <trkpt lat="43.80207" lon="7.17571">
        <ele>511</ele>
        <time>2016-08-31T16:33:09.000Z</time>
      </trkpt>
      <trkpt lat="43.80212" lon="7.17552">
        <ele>511</ele>
        <time>2016-08-31T16:33:12.000Z</time>
      </trkpt>
      <trkpt lat="43.80222" lon="7.17522">
        <ele>510</ele>
        <time>2016-08-31T16:33:17.000Z</time>
      </trkpt>
      <trkpt lat="43.80231" lon="7.17505">
        <ele>510</ele>
        <time>2016-08-31T16:33:20.000Z</time>
      </trkpt>
      <trkpt lat="43.80241" lon="7.17486">
        <ele>508</ele>
        <time>2016-08-31T16:33:23.000Z</time>
      </trkpt>
      <trkpt lat="43.80248" lon="7.17469">
        <ele>507</ele>
        <time>2016-08-31T16:33:26.000Z</time>
      </trkpt>
      <trkpt lat="43.80257" lon="7.17454">
        <ele>507</ele>
        <time>2016-08-31T16:33:29.000Z</time>
      </trkpt>
      <trkpt lat="43.80262" lon="7.17443">
        <ele>508</ele>
        <time>2016-08-31T16:33:31.000Z</time>
      </trkpt>
      <trkpt lat="43.80265" lon="7.17431">
        <ele>507</ele>
        <time>2016-08-31T16:33:33.000Z</time>
      </trkpt>
      <trkpt lat="43.80272" lon="7.17411">
        <ele>507</ele>
        <time>2016-08-31T16:33:37.000Z</time>
      </trkpt>
      <trkpt lat="43.80282" lon="7.17398">
        <ele>507</ele>
        <time>2016-08-31T16:33:40.000Z</time>
      </trkpt>
      <trkpt lat="43.80292" lon="7.17377">
        <ele>505</ele>
        <time>2016-08-31T16:33:44.000Z</time>
      </trkpt>
      <trkpt lat="43.80297" lon="7.17365">
        <ele>508</ele>
        <time>2016-08-31T16:33:47.000Z</time>
      </trkpt>
      <trkpt lat="43.80298" lon="7.17344">
        <ele>507</ele>
        <time>2016-08-31T16:33:51.000Z</time>
      </trkpt>
      <trkpt lat="43.80309" lon="7.17335">
        <ele>507</ele>
        <time>2016-08-31T16:33:54.000Z</time>
      </trkpt>
      <trkpt lat="43.80318" lon="7.17332">
        <ele>504</ele>
        <time>2016-08-31T16:33:56.000Z</time>
      </trkpt>
      <trkpt lat="43.80328" lon="7.17328">
        <ele>506</ele>
        <time>2016-08-31T16:33:58.000Z</time>
      </trkpt>
      <trkpt lat="43.80337" lon="7.17324">
        <ele>507</ele>
        <time>2016-08-31T16:34:00.000Z</time>
      </trkpt>
      <trkpt lat="43.80347" lon="7.17314">
        <ele>505</ele>
        <time>2016-08-31T16:34:03.000Z</time>
      </trkpt>
      <trkpt lat="43.80359" lon="7.17295">
        <ele>504</ele>
        <time>2016-08-31T16:34:07.000Z</time>
      </trkpt>
      <trkpt lat="43.8037" lon="7.1727">
        <ele>503</ele>
        <time>2016-08-31T16:34:11.000Z</time>
      </trkpt>
      <trkpt lat="43.80377" lon="7.17255">
        <ele>502</ele>
        <time>2016-08-31T16:34:14.000Z</time>
      </trkpt>
      <trkpt lat="43.80385" lon="7.17237">
        <ele>503</ele>
        <time>2016-08-31T16:34:19.000Z</time>
      </trkpt>
      <trkpt lat="43.80391" lon="7.17217">
        <ele>504</ele>
        <time>2016-08-31T16:34:22.000Z</time>
      </trkpt>
      <trkpt lat="43.8039" lon="7.17197">
        <ele>501</ele>
        <time>2016-08-31T16:34:27.000Z</time>
      </trkpt>
      <trkpt lat="43.80399" lon="7.17187">
        <ele>502</ele>
        <time>2016-08-31T16:34:29.000Z</time>
      </trkpt>
      <trkpt lat="43.80401" lon="7.17164">
        <ele>505</ele>
        <time>2016-08-31T16:34:34.000Z</time>
      </trkpt>
      <trkpt lat="43.80403" lon="7.17149">
        <ele>504</ele>
        <time>2016-08-31T16:34:37.000Z</time>
      </trkpt>
      <trkpt lat="43.80404" lon="7.17131">
        <ele>503</ele>
        <time>2016-08-31T16:34:40.000Z</time>
      </trkpt>
      <trkpt lat="43.80407" lon="7.17114">
        <ele>506</ele>
        <time>2016-08-31T16:34:44.000Z</time>
      </trkpt>
      <trkpt lat="43.80409" lon="7.171">
        <ele>504</ele>
        <time>2016-08-31T16:34:47.000Z</time>
      </trkpt>
      <trkpt lat="43.80411" lon="7.17085">
        <ele>505</ele>
        <time>2016-08-31T16:34:50.000Z</time>
      </trkpt>
      <trkpt lat="43.80415" lon="7.1707">
        <ele>504</ele>
        <time>2016-08-31T16:34:53.000Z</time>
      </trkpt>
      <trkpt lat="43.80428" lon="7.17047">
        <ele>502</ele>
        <time>2016-08-31T16:34:58.000Z</time>
      </trkpt>
      <trkpt lat="43.80438" lon="7.17035">
        <ele>502</ele>
        <time>2016-08-31T16:35:01.000Z</time>
      </trkpt>
      <trkpt lat="43.80454" lon="7.17014">
        <ele>504</ele>
        <time>2016-08-31T16:35:06.000Z</time>
      </trkpt>
      <trkpt lat="43.80465" lon="7.16996">
        <ele>501</ele>
        <time>2016-08-31T16:35:10.000Z</time>
      </trkpt>
      <trkpt lat="43.80473" lon="7.1698">
        <ele>499</ele>
        <time>2016-08-31T16:35:13.000Z</time>
      </trkpt>
      <trkpt lat="43.8048" lon="7.1696">
        <ele>498</ele>
        <time>2016-08-31T16:35:16.000Z</time>
      </trkpt>
      <trkpt lat="43.80484" lon="7.16941">
        <ele>497</ele>
        <time>2016-08-31T16:35:19.000Z</time>
      </trkpt>
      <trkpt lat="43.80485" lon="7.1692">
        <ele>497</ele>
        <time>2016-08-31T16:35:22.000Z</time>
      </trkpt>
      <trkpt lat="43.80488" lon="7.16907">
        <ele>497</ele>
        <time>2016-08-31T16:35:24.000Z</time>
      </trkpt>
      <trkpt lat="43.80495" lon="7.16882">
        <ele>496</ele>
        <time>2016-08-31T16:35:28.000Z</time>
      </trkpt>
      <trkpt lat="43.80504" lon="7.16866">
        <ele>497</ele>
        <time>2016-08-31T16:35:31.000Z</time>
      </trkpt>
      <trkpt lat="43.80514" lon="7.16849">
        <ele>495</ele>
        <time>2016-08-31T16:35:34.000Z</time>
      </trkpt>
      <trkpt lat="43.8052" lon="7.16838">
        <ele>495</ele>
        <time>2016-08-31T16:35:36.000Z</time>
      </trkpt>
      <trkpt lat="43.8053" lon="7.16814">
        <ele>494</ele>
        <time>2016-08-31T16:35:40.000Z</time>
      </trkpt>
      <trkpt lat="43.80533" lon="7.16794">
        <ele>495</ele>
        <time>2016-08-31T16:35:43.000Z</time>
      </trkpt>
      <trkpt lat="43.80536" lon="7.16781">
        <ele>495</ele>
        <time>2016-08-31T16:35:45.000Z</time>
      </trkpt>
      <trkpt lat="43.80543" lon="7.16755">
        <ele>495</ele>
        <time>2016-08-31T16:35:49.000Z</time>
      </trkpt>
      <trkpt lat="43.80544" lon="7.16742">
        <ele>493</ele>
        <time>2016-08-31T16:35:51.000Z</time>
      </trkpt>
      <trkpt lat="43.80549" lon="7.16723">
        <ele>494</ele>
        <time>2016-08-31T16:35:54.000Z</time>
      </trkpt>
      <trkpt lat="43.80556" lon="7.16704">
        <ele>493</ele>
        <time>2016-08-31T16:35:57.000Z</time>
      </trkpt>
      <trkpt lat="43.80564" lon="7.16684">
        <ele>493</ele>
        <time>2016-08-31T16:36:00.000Z</time>
      </trkpt>
      <trkpt lat="43.80575" lon="7.1666">
        <ele>494</ele>
        <time>2016-08-31T16:36:05.000Z</time>
      </trkpt>
      <trkpt lat="43.80585" lon="7.16659">
        <ele>496</ele>
        <time>2016-08-31T16:36:07.000Z</time>
      </trkpt>
      <trkpt lat="43.80597" lon="7.16661">
        <ele>495</ele>
        <time>2016-08-31T16:36:10.000Z</time>
      </trkpt>
      <trkpt lat="43.80619" lon="7.16669">
        <ele>496</ele>
        <time>2016-08-31T16:36:16.000Z</time>
      </trkpt>
      <trkpt lat="43.80635" lon="7.16679">
        <ele>495</ele>
        <time>2016-08-31T16:36:24.000Z</time>
      </trkpt>
      <trkpt lat="43.80652" lon="7.16682">
        <ele>494</ele>
        <time>2016-08-31T16:36:30.000Z</time>
      </trkpt>
      <trkpt lat="43.80658" lon="7.16699">
        <ele>489</ele>
        <time>2016-08-31T16:36:36.000Z</time>
      </trkpt>
      <trkpt lat="43.80662" lon="7.16711">
        <ele>489</ele>
        <time>2016-08-31T16:36:39.000Z</time>
      </trkpt>
      <trkpt lat="43.80674" lon="7.16719">
        <ele>487</ele>
        <time>2016-08-31T16:36:44.000Z</time>
      </trkpt>
      <trkpt lat="43.80682" lon="7.16727">
        <ele>485</ele>
        <time>2016-08-31T16:36:53.000Z</time>
      </trkpt>
      <trkpt lat="43.80687" lon="7.1674">
        <ele>484</ele>
        <time>2016-08-31T16:37:02.000Z</time>
      </trkpt>
      <trkpt lat="43.80695" lon="7.16762">
        <ele>482</ele>
        <time>2016-08-31T16:37:07.000Z</time>
      </trkpt>
      <trkpt lat="43.80701" lon="7.16773">
        <ele>481</ele>
        <time>2016-08-31T16:37:09.000Z</time>
      </trkpt>
      <trkpt lat="43.80711" lon="7.16785">
        <ele>480</ele>
        <time>2016-08-31T16:37:12.000Z</time>
      </trkpt>
      <trkpt lat="43.80722" lon="7.1679">
        <ele>481</ele>
        <time>2016-08-31T16:37:18.000Z</time>
      </trkpt>
      <trkpt lat="43.80728" lon="7.16779">
        <ele>484</ele>
        <time>2016-08-31T16:37:26.000Z</time>
      </trkpt>
      <trkpt lat="43.80737" lon="7.16783">
        <ele>484</ele>
        <time>2016-08-31T16:37:54.000Z</time>
      </trkpt>
      <trkpt lat="43.80745" lon="7.16789">
        <ele>488</ele>
        <time>2016-08-31T16:38:00.000Z</time>
      </trkpt>
      <trkpt lat="43.80754" lon="7.16796">
        <ele>489</ele>
        <time>2016-08-31T16:38:09.000Z</time>
      </trkpt>
      <trkpt lat="43.80762" lon="7.16804">
        <ele>489</ele>
        <time>2016-08-31T16:38:14.000Z</time>
      </trkpt>
      <trkpt lat="43.80774" lon="7.16816">
        <ele>489</ele>
        <time>2016-08-31T16:38:21.000Z</time>
      </trkpt>
      <trkpt lat="43.80784" lon="7.16822">
        <ele>488</ele>
        <time>2016-08-31T16:38:26.000Z</time>
      </trkpt>
      <trkpt lat="43.80796" lon="7.16835">
        <ele>488</ele>
        <time>2016-08-31T16:38:32.000Z</time>
      </trkpt>
      <trkpt lat="43.80809" lon="7.16844">
        <ele>490</ele>
        <time>2016-08-31T16:38:38.000Z</time>
      </trkpt>
      <trkpt lat="43.80821" lon="7.16859">
        <ele>491</ele>
        <time>2016-08-31T16:38:45.000Z</time>
      </trkpt>
      <trkpt lat="43.80827" lon="7.16874">
        <ele>492</ele>
        <time>2016-08-31T16:38:50.000Z</time>
      </trkpt>
      <trkpt lat="43.80832" lon="7.16887">
        <ele>492</ele>
        <time>2016-08-31T16:38:56.000Z</time>
      </trkpt>
      <trkpt lat="43.80833" lon="7.16903">
        <ele>493</ele>
        <time>2016-08-31T16:39:01.000Z</time>
      </trkpt>
      <trkpt lat="43.80834" lon="7.1692">
        <ele>492</ele>
        <time>2016-08-31T16:39:06.000Z</time>
      </trkpt>
      <trkpt lat="43.80836" lon="7.16934">
        <ele>493</ele>
        <time>2016-08-31T16:39:10.000Z</time>
      </trkpt>
      <trkpt lat="43.80833" lon="7.16949">
        <ele>494</ele>
        <time>2016-08-31T16:39:15.000Z</time>
      </trkpt>
      <trkpt lat="43.80833" lon="7.16965">
        <ele>491</ele>
        <time>2016-08-31T16:39:25.000Z</time>
      </trkpt>
      <trkpt lat="43.8084" lon="7.16975">
        <ele>489</ele>
        <time>2016-08-31T16:39:51.000Z</time>
      </trkpt>
      <trkpt lat="43.80847" lon="7.16981">
        <ele>490</ele>
        <time>2016-08-31T16:39:57.000Z</time>
      </trkpt>
      <trkpt lat="43.80856" lon="7.16974">
        <ele>496</ele>
        <time>2016-08-31T16:40:14.000Z</time>
      </trkpt>
      <trkpt lat="43.80861" lon="7.16989">
        <ele>497</ele>
        <time>2016-08-31T16:40:33.000Z</time>
      </trkpt>
      <trkpt lat="43.80859" lon="7.17002">
        <ele>504</ele>
        <time>2016-08-31T16:40:38.000Z</time>
      </trkpt>
      <trkpt lat="43.80862" lon="7.17015">
        <ele>506</ele>
        <time>2016-08-31T16:40:44.000Z</time>
      </trkpt>
      <trkpt lat="43.80876" lon="7.17014">
        <ele>500</ele>
        <time>2016-08-31T16:41:10.000Z</time>
      </trkpt>
      <trkpt lat="43.80885" lon="7.17006">
        <ele>499</ele>
        <time>2016-08-31T16:41:17.000Z</time>
      </trkpt>
      <trkpt lat="43.80888" lon="7.16992">
        <ele>498</ele>
        <time>2016-08-31T16:41:22.000Z</time>
      </trkpt>
      <trkpt lat="43.80895" lon="7.1698">
        <ele>497</ele>
        <time>2016-08-31T16:41:26.000Z</time>
      </trkpt>
      <trkpt lat="43.80899" lon="7.16968">
        <ele>498</ele>
        <time>2016-08-31T16:41:31.000Z</time>
      </trkpt>
      <trkpt lat="43.80907" lon="7.1696">
        <ele>496</ele>
        <time>2016-08-31T16:41:36.000Z</time>
      </trkpt>
      <trkpt lat="43.80908" lon="7.16944">
        <ele>498</ele>
        <time>2016-08-31T16:41:42.000Z</time>
      </trkpt>
      <trkpt lat="43.80911" lon="7.16931">
        <ele>504</ele>
        <time>2016-08-31T16:41:47.000Z</time>
      </trkpt>
      <trkpt lat="43.80914" lon="7.1692">
        <ele>505</ele>
        <time>2016-08-31T16:41:50.000Z</time>
      </trkpt>
      <trkpt lat="43.80922" lon="7.16909">
        <ele>504</ele>
        <time>2016-08-31T16:41:53.000Z</time>
      </trkpt>
      <trkpt lat="43.8093" lon="7.16903">
        <ele>503</ele>
        <time>2016-08-31T16:41:56.000Z</time>
      </trkpt>
      <trkpt lat="43.8094" lon="7.1689">
        <ele>502</ele>
        <time>2016-08-31T16:42:02.000Z</time>
      </trkpt>
      <trkpt lat="43.80947" lon="7.16876">
        <ele>506</ele>
        <time>2016-08-31T16:42:07.000Z</time>
      </trkpt>
      <trkpt lat="43.80948" lon="7.1686">
        <ele>507</ele>
        <time>2016-08-31T16:42:12.000Z</time>
      </trkpt>
      <trkpt lat="43.80951" lon="7.16839">
        <ele>506</ele>
        <time>2016-08-31T16:42:19.000Z</time>
      </trkpt>
      <trkpt lat="43.80957" lon="7.1683">
        <ele>507</ele>
        <time>2016-08-31T16:42:22.000Z</time>
      </trkpt>
      <trkpt lat="43.80968" lon="7.16813">
        <ele>509</ele>
        <time>2016-08-31T16:42:28.000Z</time>
      </trkpt>
      <trkpt lat="43.80977" lon="7.16804">
        <ele>510</ele>
        <time>2016-08-31T16:42:33.000Z</time>
      </trkpt>
      <trkpt lat="43.80985" lon="7.16788">
        <ele>512</ele>
        <time>2016-08-31T16:42:39.000Z</time>
      </trkpt>
      <trkpt lat="43.80994" lon="7.16775">
        <ele>511</ele>
        <time>2016-08-31T16:42:45.000Z</time>
      </trkpt>
      <trkpt lat="43.81004" lon="7.16762">
        <ele>512</ele>
        <time>2016-08-31T16:42:51.000Z</time>
      </trkpt>
      <trkpt lat="43.81013" lon="7.16749">
        <ele>512</ele>
        <time>2016-08-31T16:42:57.000Z</time>
      </trkpt>
      <trkpt lat="43.81021" lon="7.16739">
        <ele>514</ele>
        <time>2016-08-31T16:43:03.000Z</time>
      </trkpt>
      <trkpt lat="43.81029" lon="7.16729">
        <ele>514</ele>
        <time>2016-08-31T16:43:09.000Z</time>
      </trkpt>
      <trkpt lat="43.81038" lon="7.1672">
        <ele>516</ele>
        <time>2016-08-31T16:43:15.000Z</time>
      </trkpt>
      <trkpt lat="43.81043" lon="7.16704">
        <ele>516</ele>
        <time>2016-08-31T16:43:22.000Z</time>
      </trkpt>
      <trkpt lat="43.8105" lon="7.16694">
        <ele>520</ele>
        <time>2016-08-31T16:43:27.000Z</time>
      </trkpt>
      <trkpt lat="43.81052" lon="7.16678">
        <ele>520</ele>
        <time>2016-08-31T16:43:33.000Z</time>
      </trkpt>
      <trkpt lat="43.81055" lon="7.1666">
        <ele>521</ele>
        <time>2016-08-31T16:43:39.000Z</time>
      </trkpt>
      <trkpt lat="43.81059" lon="7.16643">
        <ele>525</ele>
        <time>2016-08-31T16:43:45.000Z</time>
      </trkpt>
      <trkpt lat="43.81065" lon="7.16626">
        <ele>524</ele>
        <time>2016-08-31T16:43:51.000Z</time>
      </trkpt>
      <trkpt lat="43.81073" lon="7.16618">
        <ele>523</ele>
        <time>2016-08-31T16:43:55.000Z</time>
      </trkpt>
      <trkpt lat="43.81085" lon="7.16611">
        <ele>524</ele>
        <time>2016-08-31T16:44:01.000Z</time>
      </trkpt>
      <trkpt lat="43.81097" lon="7.16608">
        <ele>519</ele>
        <time>2016-08-31T16:44:06.000Z</time>
      </trkpt>
      <trkpt lat="43.81109" lon="7.16603">
        <ele>518</ele>
        <time>2016-08-31T16:44:09.000Z</time>
      </trkpt>
      <trkpt lat="43.8112" lon="7.16598">
        <ele>518</ele>
        <time>2016-08-31T16:44:11.000Z</time>
      </trkpt>
      <trkpt lat="43.81136" lon="7.16593">
        <ele>518</ele>
        <time>2016-08-31T16:44:14.000Z</time>
      </trkpt>
      <trkpt lat="43.81152" lon="7.16591">
        <ele>519</ele>
        <time>2016-08-31T16:44:17.000Z</time>
      </trkpt>
      <trkpt lat="43.81165" lon="7.16587">
        <ele>519</ele>
        <time>2016-08-31T16:44:20.000Z</time>
      </trkpt>
      <trkpt lat="43.81179" lon="7.1658">
        <ele>520</ele>
        <time>2016-08-31T16:44:24.000Z</time>
      </trkpt>
      <trkpt lat="43.81191" lon="7.1657">
        <ele>521</ele>
        <time>2016-08-31T16:44:29.000Z</time>
      </trkpt>
      <trkpt lat="43.81205" lon="7.16562">
        <ele>522</ele>
        <time>2016-08-31T16:44:34.000Z</time>
      </trkpt>
      <trkpt lat="43.8122" lon="7.16555">
        <ele>522</ele>
        <time>2016-08-31T16:44:40.000Z</time>
      </trkpt>
      <trkpt lat="43.81234" lon="7.16556">
        <ele>523</ele>
        <time>2016-08-31T16:44:45.000Z</time>
      </trkpt>
      <trkpt lat="43.81244" lon="7.16559">
        <ele>523</ele>
        <time>2016-08-31T16:44:49.000Z</time>
      </trkpt>
      <trkpt lat="43.81259" lon="7.16566">
        <ele>524</ele>
        <time>2016-08-31T16:44:55.000Z</time>
      </trkpt>
      <trkpt lat="43.81271" lon="7.16564">
        <ele>526</ele>
        <time>2016-08-31T16:45:00.000Z</time>
      </trkpt>
      <trkpt lat="43.81281" lon="7.16561">
        <ele>529</ele>
        <time>2016-08-31T16:45:05.000Z</time>
      </trkpt>
      <trkpt lat="43.8129" lon="7.16557">
        <ele>530</ele>
        <time>2016-08-31T16:45:11.000Z</time>
      </trkpt>
      <trkpt lat="43.81304" lon="7.16549">
        <ele>532</ele>
        <time>2016-08-31T16:45:19.000Z</time>
      </trkpt>
      <trkpt lat="43.81317" lon="7.16541">
        <ele>531</ele>
        <time>2016-08-31T16:45:27.000Z</time>
      </trkpt>
      <trkpt lat="43.81328" lon="7.16534">
        <ele>532</ele>
        <time>2016-08-31T16:45:33.000Z</time>
      </trkpt>
      <trkpt lat="43.81337" lon="7.16528">
        <ele>532</ele>
        <time>2016-08-31T16:45:37.000Z</time>
      </trkpt>
      <trkpt lat="43.81346" lon="7.16524">
        <ele>533</ele>
        <time>2016-08-31T16:45:42.000Z</time>
      </trkpt>
      <trkpt lat="43.81355" lon="7.16527">
        <ele>534</ele>
        <time>2016-08-31T16:45:47.000Z</time>
      </trkpt>
      <trkpt lat="43.81368" lon="7.16533">
        <ele>536</ele>
        <time>2016-08-31T16:45:54.000Z</time>
      </trkpt>
      <trkpt lat="43.81377" lon="7.16535">
        <ele>540</ele>
        <time>2016-08-31T16:45:59.000Z</time>
      </trkpt>
      <trkpt lat="43.8139" lon="7.16531">
        <ele>542</ele>
        <time>2016-08-31T16:46:08.000Z</time>
      </trkpt>
      <trkpt lat="43.81402" lon="7.16525">
        <ele>543</ele>
        <time>2016-08-31T16:46:17.000Z</time>
      </trkpt>
      <trkpt lat="43.81413" lon="7.16524">
        <ele>547</ele>
        <time>2016-08-31T16:46:25.000Z</time>
      </trkpt>
      <trkpt lat="43.81425" lon="7.16521">
        <ele>548</ele>
        <time>2016-08-31T16:46:34.000Z</time>
      </trkpt>
      <trkpt lat="43.81434" lon="7.16514">
        <ele>549</ele>
        <time>2016-08-31T16:46:42.000Z</time>
      </trkpt>
      <trkpt lat="43.81444" lon="7.16511">
        <ele>552</ele>
        <time>2016-08-31T16:46:48.000Z</time>
      </trkpt>
      <trkpt lat="43.81452" lon="7.16505">
        <ele>553</ele>
        <time>2016-08-31T16:46:54.000Z</time>
      </trkpt>
      <trkpt lat="43.81463" lon="7.16494">
        <ele>557</ele>
        <time>2016-08-31T16:47:03.000Z</time>
      </trkpt>
      <trkpt lat="43.81473" lon="7.1649">
        <ele>557</ele>
        <time>2016-08-31T16:47:11.000Z</time>
      </trkpt>
      <trkpt lat="43.81483" lon="7.16488">
        <ele>559</ele>
        <time>2016-08-31T16:47:18.000Z</time>
      </trkpt>
      <trkpt lat="43.81493" lon="7.1649">
        <ele>561</ele>
        <time>2016-08-31T16:47:25.000Z</time>
      </trkpt>
      <trkpt lat="43.81503" lon="7.16489">
        <ele>562</ele>
        <time>2016-08-31T16:47:32.000Z</time>
      </trkpt>
      <trkpt lat="43.81514" lon="7.16491">
        <ele>565</ele>
        <time>2016-08-31T16:47:39.000Z</time>
      </trkpt>
      <trkpt lat="43.81525" lon="7.16488">
        <ele>564</ele>
        <time>2016-08-31T16:47:46.000Z</time>
      </trkpt>
      <trkpt lat="43.81536" lon="7.16482">
        <ele>566</ele>
        <time>2016-08-31T16:47:53.000Z</time>
      </trkpt>
      <trkpt lat="43.81547" lon="7.16476">
        <ele>567</ele>
        <time>2016-08-31T16:48:02.000Z</time>
      </trkpt>
      <trkpt lat="43.81556" lon="7.16467">
        <ele>567</ele>
        <time>2016-08-31T16:48:11.000Z</time>
      </trkpt>
      <trkpt lat="43.81565" lon="7.16462">
        <ele>568</ele>
        <time>2016-08-31T16:48:20.000Z</time>
      </trkpt>
      <trkpt lat="43.81577" lon="7.16455">
        <ele>567</ele>
        <time>2016-08-31T16:48:28.000Z</time>
      </trkpt>
      <trkpt lat="43.81585" lon="7.16448">
        <ele>568</ele>
        <time>2016-08-31T16:48:32.000Z</time>
      </trkpt>
      <trkpt lat="43.81594" lon="7.16442">
        <ele>568</ele>
        <time>2016-08-31T16:48:36.000Z</time>
      </trkpt>
      <trkpt lat="43.81606" lon="7.16436">
        <ele>569</ele>
        <time>2016-08-31T16:48:41.000Z</time>
      </trkpt>
      <trkpt lat="43.81614" lon="7.16429">
        <ele>569</ele>
        <time>2016-08-31T16:48:45.000Z</time>
      </trkpt>
      <trkpt lat="43.81625" lon="7.1642">
        <ele>570</ele>
        <time>2016-08-31T16:48:51.000Z</time>
      </trkpt>
      <trkpt lat="43.81635" lon="7.1641">
        <ele>571</ele>
        <time>2016-08-31T16:48:58.000Z</time>
      </trkpt>
      <trkpt lat="43.81644" lon="7.16405">
        <ele>573</ele>
        <time>2016-08-31T16:49:05.000Z</time>
      </trkpt>
      <trkpt lat="43.81653" lon="7.16394">
        <ele>574</ele>
        <time>2016-08-31T16:49:14.000Z</time>
      </trkpt>
      <trkpt lat="43.81653" lon="7.16382">
        <ele>575</ele>
        <time>2016-08-31T16:49:21.000Z</time>
      </trkpt>
      <trkpt lat="43.81655" lon="7.16368">
        <ele>578</ele>
        <time>2016-08-31T16:49:29.000Z</time>
      </trkpt>
      <trkpt lat="43.81656" lon="7.16355">
        <ele>580</ele>
        <time>2016-08-31T16:49:38.000Z</time>
      </trkpt>
      <trkpt lat="43.81654" lon="7.16342">
        <ele>583</ele>
        <time>2016-08-31T16:49:46.000Z</time>
      </trkpt>
      <trkpt lat="43.81657" lon="7.16326">
        <ele>584</ele>
        <time>2016-08-31T16:49:54.000Z</time>
      </trkpt>
      <trkpt lat="43.81664" lon="7.16317">
        <ele>584</ele>
        <time>2016-08-31T16:49:57.000Z</time>
      </trkpt>
      <trkpt lat="43.81675" lon="7.16312">
        <ele>585</ele>
        <time>2016-08-31T16:50:04.000Z</time>
      </trkpt>
      <trkpt lat="43.81685" lon="7.16309">
        <ele>585</ele>
        <time>2016-08-31T16:50:10.000Z</time>
      </trkpt>
      <trkpt lat="43.81695" lon="7.16301">
        <ele>585</ele>
        <time>2016-08-31T16:50:17.000Z</time>
      </trkpt>
      <trkpt lat="43.817" lon="7.1629">
        <ele>584</ele>
        <time>2016-08-31T16:50:22.000Z</time>
      </trkpt>
      <trkpt lat="43.81705" lon="7.16278">
        <ele>584</ele>
        <time>2016-08-31T16:50:27.000Z</time>
      </trkpt>
      <trkpt lat="43.81705" lon="7.16265">
        <ele>585</ele>
        <time>2016-08-31T16:50:34.000Z</time>
      </trkpt>
      <trkpt lat="43.81705" lon="7.16249">
        <ele>588</ele>
        <time>2016-08-31T16:50:42.000Z</time>
      </trkpt>
      <trkpt lat="43.81706" lon="7.16235">
        <ele>591</ele>
        <time>2016-08-31T16:50:51.000Z</time>
      </trkpt>
      <trkpt lat="43.81709" lon="7.16221">
        <ele>595</ele>
        <time>2016-08-31T16:51:01.000Z</time>
      </trkpt>
      <trkpt lat="43.81714" lon="7.16207">
        <ele>597</ele>
        <time>2016-08-31T16:51:11.000Z</time>
      </trkpt>
      <trkpt lat="43.81716" lon="7.16194">
        <ele>598</ele>
        <time>2016-08-31T16:51:19.000Z</time>
      </trkpt>
      <trkpt lat="43.81718" lon="7.16179">
        <ele>598</ele>
        <time>2016-08-31T16:51:28.000Z</time>
      </trkpt>
      <trkpt lat="43.81715" lon="7.16163">
        <ele>599</ele>
        <time>2016-08-31T16:51:37.000Z</time>
      </trkpt>
      <trkpt lat="43.81712" lon="7.1615">
        <ele>602</ele>
        <time>2016-08-31T16:51:45.000Z</time>
      </trkpt>
      <trkpt lat="43.81711" lon="7.16136">
        <ele>604</ele>
        <time>2016-08-31T16:51:53.000Z</time>
      </trkpt>
      <trkpt lat="43.81711" lon="7.16123">
        <ele>607</ele>
        <time>2016-08-31T16:52:01.000Z</time>
      </trkpt>
      <trkpt lat="43.81709" lon="7.16105">
        <ele>608</ele>
        <time>2016-08-31T16:52:11.000Z</time>
      </trkpt>
      <trkpt lat="43.81707" lon="7.1609">
        <ele>610</ele>
        <time>2016-08-31T16:52:19.000Z</time>
      </trkpt>
      <trkpt lat="43.81703" lon="7.16077">
        <ele>613</ele>
        <time>2016-08-31T16:52:28.000Z</time>
      </trkpt>
      <trkpt lat="43.81698" lon="7.16064">
        <ele>615</ele>
        <time>2016-08-31T16:52:36.000Z</time>
      </trkpt>
      <trkpt lat="43.81694" lon="7.16051">
        <ele>617</ele>
        <time>2016-08-31T16:52:45.000Z</time>
      </trkpt>
      <trkpt lat="43.81686" lon="7.16039">
        <ele>619</ele>
        <time>2016-08-31T16:52:57.000Z</time>
      </trkpt>
      <trkpt lat="43.81685" lon="7.16055">
        <ele>621</ele>
        <time>2016-08-31T16:53:08.000Z</time>
      </trkpt>
      <trkpt lat="43.81677" lon="7.16047">
        <ele>625</ele>
        <time>2016-08-31T16:53:22.000Z</time>
      </trkpt>
      <trkpt lat="43.81675" lon="7.16035">
        <ele>627</ele>
        <time>2016-08-31T16:53:30.000Z</time>
      </trkpt>
      <trkpt lat="43.8167" lon="7.1602">
        <ele>628</ele>
        <time>2016-08-31T16:53:39.000Z</time>
      </trkpt>
      <trkpt lat="43.81669" lon="7.16007">
        <ele>628</ele>
        <time>2016-08-31T16:53:46.000Z</time>
      </trkpt>
      <trkpt lat="43.81667" lon="7.1599">
        <ele>629</ele>
        <time>2016-08-31T16:53:56.000Z</time>
      </trkpt>
      <trkpt lat="43.81665" lon="7.15978">
        <ele>630</ele>
        <time>2016-08-31T16:54:05.000Z</time>
      </trkpt>
      <trkpt lat="43.81657" lon="7.15965">
        <ele>631</ele>
        <time>2016-08-31T16:54:15.000Z</time>
      </trkpt>
      <trkpt lat="43.81648" lon="7.15956">
        <ele>631</ele>
        <time>2016-08-31T16:54:24.000Z</time>
      </trkpt>
      <trkpt lat="43.81641" lon="7.15948">
        <ele>632</ele>
        <time>2016-08-31T16:54:32.000Z</time>
      </trkpt>
      <trkpt lat="43.81635" lon="7.15936">
        <ele>635</ele>
        <time>2016-08-31T16:54:41.000Z</time>
      </trkpt>
      <trkpt lat="43.81629" lon="7.15921">
        <ele>637</ele>
        <time>2016-08-31T16:54:51.000Z</time>
      </trkpt>
      <trkpt lat="43.81625" lon="7.15907">
        <ele>638</ele>
        <time>2016-08-31T16:54:59.000Z</time>
      </trkpt>
      <trkpt lat="43.8162" lon="7.15896">
        <ele>639</ele>
        <time>2016-08-31T16:55:07.000Z</time>
      </trkpt>
      <trkpt lat="43.81614" lon="7.15885">
        <ele>639</ele>
        <time>2016-08-31T16:55:14.000Z</time>
      </trkpt>
      <trkpt lat="43.8161" lon="7.15869">
        <ele>639</ele>
        <time>2016-08-31T16:55:22.000Z</time>
      </trkpt>
      <trkpt lat="43.81605" lon="7.15854">
        <ele>640</ele>
        <time>2016-08-31T16:55:31.000Z</time>
      </trkpt>
      <trkpt lat="43.816" lon="7.15843">
        <ele>640</ele>
        <time>2016-08-31T16:55:36.000Z</time>
      </trkpt>
      <trkpt lat="43.81594" lon="7.15829">
        <ele>641</ele>
        <time>2016-08-31T16:55:42.000Z</time>
      </trkpt>
      <trkpt lat="43.81588" lon="7.15816">
        <ele>640</ele>
        <time>2016-08-31T16:55:47.000Z</time>
      </trkpt>
      <trkpt lat="43.81579" lon="7.15806">
        <ele>641</ele>
        <time>2016-08-31T16:55:54.000Z</time>
      </trkpt>
      <trkpt lat="43.81566" lon="7.15797">
        <ele>643</ele>
        <time>2016-08-31T16:56:03.000Z</time>
      </trkpt>
      <trkpt lat="43.81556" lon="7.1579">
        <ele>642</ele>
        <time>2016-08-31T16:56:10.000Z</time>
      </trkpt>
      <trkpt lat="43.81548" lon="7.15787">
        <ele>643</ele>
        <time>2016-08-31T16:56:16.000Z</time>
      </trkpt>
      <trkpt lat="43.8154" lon="7.15778">
        <ele>644</ele>
        <time>2016-08-31T16:56:23.000Z</time>
      </trkpt>
      <trkpt lat="43.81531" lon="7.1577">
        <ele>645</ele>
        <time>2016-08-31T16:56:31.000Z</time>
      </trkpt>
      <trkpt lat="43.81524" lon="7.1576">
        <ele>649</ele>
        <time>2016-08-31T16:56:38.000Z</time>
      </trkpt>
      <trkpt lat="43.81519" lon="7.1575">
        <ele>651</ele>
        <time>2016-08-31T16:56:45.000Z</time>
      </trkpt>
      <trkpt lat="43.81511" lon="7.15736">
        <ele>654</ele>
        <time>2016-08-31T16:56:55.000Z</time>
      </trkpt>
      <trkpt lat="43.81506" lon="7.15723">
        <ele>656</ele>
        <time>2016-08-31T16:57:04.000Z</time>
      </trkpt>
      <trkpt lat="43.815" lon="7.1571">
        <ele>659</ele>
        <time>2016-08-31T16:57:15.000Z</time>
      </trkpt>
      <trkpt lat="43.81495" lon="7.15696">
        <ele>663</ele>
        <time>2016-08-31T16:57:26.000Z</time>
      </trkpt>
      <trkpt lat="43.81491" lon="7.15682">
        <ele>665</ele>
        <time>2016-08-31T16:57:36.000Z</time>
      </trkpt>
      <trkpt lat="43.81485" lon="7.15668">
        <ele>666</ele>
        <time>2016-08-31T16:57:47.000Z</time>
      </trkpt>
      <trkpt lat="43.81478" lon="7.15658">
        <ele>665</ele>
        <time>2016-08-31T16:57:55.000Z</time>
      </trkpt>
      <trkpt lat="43.81472" lon="7.15648">
        <ele>666</ele>
        <time>2016-08-31T16:58:02.000Z</time>
      </trkpt>
      <trkpt lat="43.81467" lon="7.15638">
        <ele>666</ele>
        <time>2016-08-31T16:58:09.000Z</time>
      </trkpt>
      <trkpt lat="43.81459" lon="7.15624">
        <ele>668</ele>
        <time>2016-08-31T16:58:18.000Z</time>
      </trkpt>
      <trkpt lat="43.81451" lon="7.1561">
        <ele>668</ele>
        <time>2016-08-31T16:58:27.000Z</time>
      </trkpt>
      <trkpt lat="43.81445" lon="7.15597">
        <ele>670</ele>
        <time>2016-08-31T16:58:35.000Z</time>
      </trkpt>
      <trkpt lat="43.81441" lon="7.1558">
        <ele>670</ele>
        <time>2016-08-31T16:58:44.000Z</time>
      </trkpt>
      <trkpt lat="43.81435" lon="7.15569">
        <ele>670</ele>
        <time>2016-08-31T16:58:51.000Z</time>
      </trkpt>
      <trkpt lat="43.81425" lon="7.15558">
        <ele>671</ele>
        <time>2016-08-31T16:58:59.000Z</time>
      </trkpt>
      <trkpt lat="43.81416" lon="7.15555">
        <ele>670</ele>
        <time>2016-08-31T16:59:06.000Z</time>
      </trkpt>
      <trkpt lat="43.81405" lon="7.15554">
        <ele>671</ele>
        <time>2016-08-31T16:59:14.000Z</time>
      </trkpt>
      <trkpt lat="43.81396" lon="7.15553">
        <ele>673</ele>
        <time>2016-08-31T16:59:22.000Z</time>
      </trkpt>
      <trkpt lat="43.81385" lon="7.15553">
        <ele>675</ele>
        <time>2016-08-31T16:59:32.000Z</time>
      </trkpt>
      <trkpt lat="43.81374" lon="7.15558">
        <ele>678</ele>
        <time>2016-08-31T16:59:43.000Z</time>
      </trkpt>
      <trkpt lat="43.81364" lon="7.15558">
        <ele>679</ele>
        <time>2016-08-31T16:59:55.000Z</time>
      </trkpt>
      <trkpt lat="43.81352" lon="7.15556">
        <ele>678</ele>
        <time>2016-08-31T17:01:56.000Z</time>
      </trkpt>
      <trkpt lat="43.81341" lon="7.15557">
        <ele>679</ele>
        <time>2016-08-31T17:02:04.000Z</time>
      </trkpt>
      <trkpt lat="43.81329" lon="7.15558">
        <ele>679</ele>
        <time>2016-08-31T17:02:12.000Z</time>
      </trkpt>
      <trkpt lat="43.81318" lon="7.15557">
        <ele>682</ele>
        <time>2016-08-31T17:02:20.000Z</time>
      </trkpt>
      <trkpt lat="43.81306" lon="7.15553">
        <ele>684</ele>
        <time>2016-08-31T17:02:29.000Z</time>
      </trkpt>
      <trkpt lat="43.81294" lon="7.1555">
        <ele>688</ele>
        <time>2016-08-31T17:02:39.000Z</time>
      </trkpt>
      <trkpt lat="43.81284" lon="7.15551">
        <ele>690</ele>
        <time>2016-08-31T17:02:48.000Z</time>
      </trkpt>
      <trkpt lat="43.81273" lon="7.15553">
        <ele>692</ele>
        <time>2016-08-31T17:02:57.000Z</time>
      </trkpt>
      <trkpt lat="43.81263" lon="7.15553">
        <ele>692</ele>
        <time>2016-08-31T17:03:06.000Z</time>
      </trkpt>
      <trkpt lat="43.8125" lon="7.15553">
        <ele>695</ele>
        <time>2016-08-31T17:03:16.000Z</time>
      </trkpt>
      <trkpt lat="43.81239" lon="7.15555">
        <ele>697</ele>
        <time>2016-08-31T17:03:25.000Z</time>
      </trkpt>
      <trkpt lat="43.81229" lon="7.15555">
        <ele>699</ele>
        <time>2016-08-31T17:03:34.000Z</time>
      </trkpt>
      <trkpt lat="43.81218" lon="7.1555">
        <ele>700</ele>
        <time>2016-08-31T17:03:42.000Z</time>
      </trkpt>
      <trkpt lat="43.81212" lon="7.15542">
        <ele>701</ele>
        <time>2016-08-31T17:03:50.000Z</time>
      </trkpt>
      <trkpt lat="43.81202" lon="7.1553">
        <ele>703</ele>
        <time>2016-08-31T17:04:10.000Z</time>
      </trkpt>
      <trkpt lat="43.81195" lon="7.15516">
        <ele>704</ele>
        <time>2016-08-31T17:17:08.000Z</time>
      </trkpt>
      <trkpt lat="43.81189" lon="7.15503">
        <ele>704</ele>
        <time>2016-08-31T17:17:13.000Z</time>
      </trkpt>
      <trkpt lat="43.81181" lon="7.15491">
        <ele>706</ele>
        <time>2016-08-31T17:17:19.000Z</time>
      </trkpt>
      <trkpt lat="43.81177" lon="7.15477">
        <ele>707</ele>
        <time>2016-08-31T17:17:25.000Z</time>
      </trkpt>
      <trkpt lat="43.8117" lon="7.15461">
        <ele>709</ele>
        <time>2016-08-31T17:17:33.000Z</time>
      </trkpt>
      <trkpt lat="43.81163" lon="7.15447">
        <ele>712</ele>
        <time>2016-08-31T17:17:40.000Z</time>
      </trkpt>
      <trkpt lat="43.81155" lon="7.15433">
        <ele>713</ele>
        <time>2016-08-31T17:17:48.000Z</time>
      </trkpt>
      <trkpt lat="43.81149" lon="7.1542">
        <ele>714</ele>
        <time>2016-08-31T17:17:55.000Z</time>
      </trkpt>
      <trkpt lat="43.81144" lon="7.15408">
        <ele>716</ele>
        <time>2016-08-31T17:18:02.000Z</time>
      </trkpt>
      <trkpt lat="43.81142" lon="7.15391">
        <ele>718</ele>
        <time>2016-08-31T17:18:10.000Z</time>
      </trkpt>
      <trkpt lat="43.81138" lon="7.15376">
        <ele>720</ele>
        <time>2016-08-31T17:18:18.000Z</time>
      </trkpt>
      <trkpt lat="43.81133" lon="7.15365">
        <ele>722</ele>
        <time>2016-08-31T17:18:25.000Z</time>
      </trkpt>
      <trkpt lat="43.81126" lon="7.15355">
        <ele>724</ele>
        <time>2016-08-31T17:18:31.000Z</time>
      </trkpt>
      <trkpt lat="43.8112" lon="7.15344">
        <ele>724</ele>
        <time>2016-08-31T17:18:38.000Z</time>
      </trkpt>
      <trkpt lat="43.81112" lon="7.1533">
        <ele>725</ele>
        <time>2016-08-31T17:18:47.000Z</time>
      </trkpt>
      <trkpt lat="43.81106" lon="7.15315">
        <ele>724</ele>
        <time>2016-08-31T17:18:56.000Z</time>
      </trkpt>
      <trkpt lat="43.81098" lon="7.15301">
        <ele>727</ele>
        <time>2016-08-31T17:19:04.000Z</time>
      </trkpt>
      <trkpt lat="43.81092" lon="7.15287">
        <ele>730</ele>
        <time>2016-08-31T17:19:13.000Z</time>
      </trkpt>
      <trkpt lat="43.81085" lon="7.15275">
        <ele>731</ele>
        <time>2016-08-31T17:19:21.000Z</time>
      </trkpt>
      <trkpt lat="43.81077" lon="7.15265">
        <ele>735</ele>
        <time>2016-08-31T17:19:31.000Z</time>
      </trkpt>
      <trkpt lat="43.81071" lon="7.15253">
        <ele>731</ele>
        <time>2016-08-31T17:19:38.000Z</time>
      </trkpt>
      <trkpt lat="43.81066" lon="7.15243">
        <ele>732</ele>
        <time>2016-08-31T17:19:46.000Z</time>
      </trkpt>
      <trkpt lat="43.8106" lon="7.15259">
        <ele>736</ele>
        <time>2016-08-31T17:20:05.000Z</time>
      </trkpt>
      <trkpt lat="43.8106" lon="7.15274">
        <ele>737</ele>
        <time>2016-08-31T17:20:14.000Z</time>
      </trkpt>
      <trkpt lat="43.81061" lon="7.15288">
        <ele>739</ele>
        <time>2016-08-31T17:20:24.000Z</time>
      </trkpt>
      <trkpt lat="43.81051" lon="7.15286">
        <ele>744</ele>
        <time>2016-08-31T17:20:40.000Z</time>
      </trkpt>
      <trkpt lat="43.81043" lon="7.15271">
        <ele>743</ele>
        <time>2016-08-31T17:20:48.000Z</time>
      </trkpt>
      <trkpt lat="43.81038" lon="7.15261">
        <ele>740</ele>
        <time>2016-08-31T17:20:54.000Z</time>
      </trkpt>
      <trkpt lat="43.8103" lon="7.15246">
        <ele>739</ele>
        <time>2016-08-31T17:21:00.000Z</time>
      </trkpt>
      <trkpt lat="43.81025" lon="7.15231">
        <ele>739</ele>
        <time>2016-08-31T17:21:06.000Z</time>
      </trkpt>
      <trkpt lat="43.8102" lon="7.15215">
        <ele>742</ele>
        <time>2016-08-31T17:21:14.000Z</time>
      </trkpt>
      <trkpt lat="43.81017" lon="7.15202">
        <ele>743</ele>
        <time>2016-08-31T17:21:20.000Z</time>
      </trkpt>
      <trkpt lat="43.81015" lon="7.15177">
        <ele>742</ele>
        <time>2016-08-31T17:21:26.000Z</time>
      </trkpt>
      <trkpt lat="43.81009" lon="7.15165">
        <ele>742</ele>
        <time>2016-08-31T17:21:31.000Z</time>
      </trkpt>
      <trkpt lat="43.81001" lon="7.15151">
        <ele>744</ele>
        <time>2016-08-31T17:21:38.000Z</time>
      </trkpt>
      <trkpt lat="43.80996" lon="7.15139">
        <ele>745</ele>
        <time>2016-08-31T17:21:43.000Z</time>
      </trkpt>
      <trkpt lat="43.8099" lon="7.15126">
        <ele>745</ele>
        <time>2016-08-31T17:21:49.000Z</time>
      </trkpt>
      <trkpt lat="43.80988" lon="7.15111">
        <ele>745</ele>
        <time>2016-08-31T17:21:55.000Z</time>
      </trkpt>
      <trkpt lat="43.80982" lon="7.15122">
        <ele>752</ele>
        <time>2016-08-31T17:22:07.000Z</time>
      </trkpt>
      <trkpt lat="43.8098" lon="7.15137">
        <ele>756</ele>
        <time>2016-08-31T17:22:16.000Z</time>
      </trkpt>
      <trkpt lat="43.80975" lon="7.1515">
        <ele>758</ele>
        <time>2016-08-31T17:22:23.000Z</time>
      </trkpt>
      <trkpt lat="43.80969" lon="7.15163">
        <ele>757</ele>
        <time>2016-08-31T17:22:31.000Z</time>
      </trkpt>
      <trkpt lat="43.80964" lon="7.15176">
        <ele>759</ele>
        <time>2016-08-31T17:22:39.000Z</time>
      </trkpt>
      <trkpt lat="43.80956" lon="7.15188">
        <ele>759</ele>
        <time>2016-08-31T17:22:48.000Z</time>
      </trkpt>
      <trkpt lat="43.80946" lon="7.15195">
        <ele>760</ele>
        <time>2016-08-31T17:22:56.000Z</time>
      </trkpt>
      <trkpt lat="43.80939" lon="7.15205">
        <ele>763</ele>
        <time>2016-08-31T17:23:05.000Z</time>
      </trkpt>
      <trkpt lat="43.8093" lon="7.15214">
        <ele>764</ele>
        <time>2016-08-31T17:23:14.000Z</time>
      </trkpt>
      <trkpt lat="43.80924" lon="7.15225">
        <ele>765</ele>
        <time>2016-08-31T17:23:23.000Z</time>
      </trkpt>
      <trkpt lat="43.80917" lon="7.15235">
        <ele>767</ele>
        <time>2016-08-31T17:23:30.000Z</time>
      </trkpt>
      <trkpt lat="43.80908" lon="7.15245">
        <ele>767</ele>
        <time>2016-08-31T17:23:39.000Z</time>
      </trkpt>
      <trkpt lat="43.809" lon="7.15252">
        <ele>767</ele>
        <time>2016-08-31T17:23:46.000Z</time>
      </trkpt>
      <trkpt lat="43.80891" lon="7.15256">
        <ele>767</ele>
        <time>2016-08-31T17:23:55.000Z</time>
      </trkpt>
      <trkpt lat="43.8088" lon="7.15263">
        <ele>767</ele>
        <time>2016-08-31T17:24:02.000Z</time>
      </trkpt>
      <trkpt lat="43.80868" lon="7.15274">
        <ele>767</ele>
        <time>2016-08-31T17:24:10.000Z</time>
      </trkpt>
      <trkpt lat="43.80864" lon="7.1529">
        <ele>767</ele>
        <time>2016-08-31T17:24:16.000Z</time>
      </trkpt>
      <trkpt lat="43.8086" lon="7.15304">
        <ele>767</ele>
        <time>2016-08-31T17:24:22.000Z</time>
      </trkpt>
      <trkpt lat="43.80854" lon="7.15315">
        <ele>768</ele>
        <time>2016-08-31T17:24:27.000Z</time>
      </trkpt>
      <trkpt lat="43.80846" lon="7.15325">
        <ele>769</ele>
        <time>2016-08-31T17:24:33.000Z</time>
      </trkpt>
      <trkpt lat="43.80841" lon="7.15336">
        <ele>771</ele>
        <time>2016-08-31T17:24:38.000Z</time>
      </trkpt>
      <trkpt lat="43.80834" lon="7.15345">
        <ele>772</ele>
        <time>2016-08-31T17:24:44.000Z</time>
      </trkpt>
      <trkpt lat="43.80826" lon="7.15359">
        <ele>771</ele>
        <time>2016-08-31T17:24:50.000Z</time>
      </trkpt>
      <trkpt lat="43.80817" lon="7.15372">
        <ele>770</ele>
        <time>2016-08-31T17:24:57.000Z</time>
      </trkpt>
      <trkpt lat="43.80817" lon="7.15385">
        <ele>771</ele>
        <time>2016-08-31T17:25:02.000Z</time>
      </trkpt>
      <trkpt lat="43.80817" lon="7.15407">
        <ele>771</ele>
        <time>2016-08-31T17:25:08.000Z</time>
      </trkpt>
      <trkpt lat="43.80809" lon="7.15418">
        <ele>768</ele>
        <time>2016-08-31T17:25:17.000Z</time>
      </trkpt>
      <trkpt lat="43.80802" lon="7.15428">
        <ele>770</ele>
        <time>2016-08-31T17:25:22.000Z</time>
      </trkpt>
      <trkpt lat="43.80798" lon="7.15442">
        <ele>767</ele>
        <time>2016-08-31T17:25:28.000Z</time>
      </trkpt>
      <trkpt lat="43.80796" lon="7.15459">
        <ele>769</ele>
        <time>2016-08-31T17:25:33.000Z</time>
      </trkpt>
      <trkpt lat="43.808" lon="7.15472">
        <ele>765</ele>
        <time>2016-08-31T17:25:37.000Z</time>
      </trkpt>
      <trkpt lat="43.80801" lon="7.15485">
        <ele>764</ele>
        <time>2016-08-31T17:25:40.000Z</time>
      </trkpt>
      <trkpt lat="43.80806" lon="7.15498">
        <ele>762</ele>
        <time>2016-08-31T17:25:45.000Z</time>
      </trkpt>
      <trkpt lat="43.80814" lon="7.15508">
        <ele>759</ele>
        <time>2016-08-31T17:25:53.000Z</time>
      </trkpt>
      <trkpt lat="43.80814" lon="7.15523">
        <ele>760</ele>
        <time>2016-08-31T17:25:59.000Z</time>
      </trkpt>
      <trkpt lat="43.80818" lon="7.15541">
        <ele>761</ele>
        <time>2016-08-31T17:26:07.000Z</time>
      </trkpt>
      <trkpt lat="43.80821" lon="7.15556">
        <ele>763</ele>
        <time>2016-08-31T17:26:13.000Z</time>
      </trkpt>
      <trkpt lat="43.80824" lon="7.1557">
        <ele>764</ele>
        <time>2016-08-31T17:26:29.000Z</time>
      </trkpt>
      <trkpt lat="43.80821" lon="7.15588">
        <ele>763</ele>
        <time>2016-08-31T17:26:38.000Z</time>
      </trkpt>
      <trkpt lat="43.80824" lon="7.156">
        <ele>761</ele>
        <time>2016-08-31T17:26:47.000Z</time>
      </trkpt>
      <trkpt lat="43.80831" lon="7.15611">
        <ele>760</ele>
        <time>2016-08-31T17:27:03.000Z</time>
      </trkpt>
      <trkpt lat="43.80834" lon="7.15629">
        <ele>759</ele>
        <time>2016-08-31T17:27:11.000Z</time>
      </trkpt>
      <trkpt lat="43.80833" lon="7.15641">
        <ele>758</ele>
        <time>2016-08-31T17:28:14.000Z</time>
      </trkpt>
      <trkpt lat="43.8084" lon="7.15652">
        <ele>759</ele>
        <time>2016-08-31T17:28:49.000Z</time>
      </trkpt>
      <trkpt lat="43.80849" lon="7.1566">
        <ele>759</ele>
        <time>2016-08-31T17:28:54.000Z</time>
      </trkpt>
      <trkpt lat="43.80854" lon="7.1567">
        <ele>760</ele>
        <time>2016-08-31T17:28:58.000Z</time>
      </trkpt>
      <trkpt lat="43.80864" lon="7.15676">
        <ele>759</ele>
        <time>2016-08-31T17:29:02.000Z</time>
      </trkpt>
      <trkpt lat="43.80873" lon="7.15681">
        <ele>759</ele>
        <time>2016-08-31T17:29:06.000Z</time>
      </trkpt>
      <trkpt lat="43.80879" lon="7.1569">
        <ele>759</ele>
        <time>2016-08-31T17:29:10.000Z</time>
      </trkpt>
      <trkpt lat="43.80885" lon="7.157">
        <ele>758</ele>
        <time>2016-08-31T17:29:22.000Z</time>
      </trkpt>
      <trkpt lat="43.80895" lon="7.15711">
        <ele>756</ele>
        <time>2016-08-31T17:29:40.000Z</time>
      </trkpt>
      <trkpt lat="43.80904" lon="7.15716">
        <ele>755</ele>
        <time>2016-08-31T17:29:45.000Z</time>
      </trkpt>
      <trkpt lat="43.80913" lon="7.15724">
        <ele>753</ele>
        <time>2016-08-31T17:29:52.000Z</time>
      </trkpt>
      <trkpt lat="43.8092" lon="7.15736">
        <ele>750</ele>
        <time>2016-08-31T17:29:56.000Z</time>
      </trkpt>
      <trkpt lat="43.80932" lon="7.15743">
        <ele>751</ele>
        <time>2016-08-31T17:30:26.000Z</time>
      </trkpt>
      <trkpt lat="43.80944" lon="7.1575">
        <ele>748</ele>
        <time>2016-08-31T17:30:31.000Z</time>
      </trkpt>
      <trkpt lat="43.80955" lon="7.15762">
        <ele>746</ele>
        <time>2016-08-31T17:30:36.000Z</time>
      </trkpt>
      <trkpt lat="43.80971" lon="7.15769">
        <ele>744</ele>
        <time>2016-08-31T17:30:41.000Z</time>
      </trkpt>
      <trkpt lat="43.80984" lon="7.15772">
        <ele>743</ele>
        <time>2016-08-31T17:30:46.000Z</time>
      </trkpt>
      <trkpt lat="43.80996" lon="7.15775">
        <ele>742</ele>
        <time>2016-08-31T17:30:49.000Z</time>
      </trkpt>
      <trkpt lat="43.81011" lon="7.1578">
        <ele>743</ele>
        <time>2016-08-31T17:30:54.000Z</time>
      </trkpt>
      <trkpt lat="43.8102" lon="7.15792">
        <ele>745</ele>
        <time>2016-08-31T17:30:59.000Z</time>
      </trkpt>
      <trkpt lat="43.81015" lon="7.15805">
        <ele>744</ele>
        <time>2016-08-31T17:31:24.000Z</time>
      </trkpt>
      <trkpt lat="43.81009" lon="7.15824">
        <ele>742</ele>
        <time>2016-08-31T17:31:29.000Z</time>
      </trkpt>
      <trkpt lat="43.81003" lon="7.15839">
        <ele>741</ele>
        <time>2016-08-31T17:31:32.000Z</time>
      </trkpt>
      <trkpt lat="43.80998" lon="7.15851">
        <ele>740</ele>
        <time>2016-08-31T17:31:34.000Z</time>
      </trkpt>
      <trkpt lat="43.80993" lon="7.15868">
        <ele>739</ele>
        <time>2016-08-31T17:31:37.000Z</time>
      </trkpt>
      <trkpt lat="43.80988" lon="7.15884">
        <ele>737</ele>
        <time>2016-08-31T17:31:39.000Z</time>
      </trkpt>
      <trkpt lat="43.80985" lon="7.15897">
        <ele>737</ele>
        <time>2016-08-31T17:31:41.000Z</time>
      </trkpt>
      <trkpt lat="43.80978" lon="7.1592">
        <ele>735</ele>
        <time>2016-08-31T17:31:45.000Z</time>
      </trkpt>
      <trkpt lat="43.80975" lon="7.15935">
        <ele>732</ele>
        <time>2016-08-31T17:31:47.000Z</time>
      </trkpt>
      <trkpt lat="43.80969" lon="7.15958">
        <ele>728</ele>
        <time>2016-08-31T17:31:50.000Z</time>
      </trkpt>
      <trkpt lat="43.80963" lon="7.15983">
        <ele>725</ele>
        <time>2016-08-31T17:31:53.000Z</time>
      </trkpt>
      <trkpt lat="43.80955" lon="7.16003">
        <ele>723</ele>
        <time>2016-08-31T17:31:56.000Z</time>
      </trkpt>
      <trkpt lat="43.80947" lon="7.16018">
        <ele>721</ele>
        <time>2016-08-31T17:31:58.000Z</time>
      </trkpt>
      <trkpt lat="43.80931" lon="7.16036">
        <ele>720</ele>
        <time>2016-08-31T17:32:02.000Z</time>
      </trkpt>
      <trkpt lat="43.80926" lon="7.16052">
        <ele>720</ele>
        <time>2016-08-31T17:32:08.000Z</time>
      </trkpt>
      <trkpt lat="43.80922" lon="7.16065">
        <ele>721</ele>
        <time>2016-08-31T17:32:13.000Z</time>
      </trkpt>
      <trkpt lat="43.80919" lon="7.16085">
        <ele>719</ele>
        <time>2016-08-31T17:32:19.000Z</time>
      </trkpt>
      <trkpt lat="43.80916" lon="7.16104">
        <ele>717</ele>
        <time>2016-08-31T17:32:25.000Z</time>
      </trkpt>
      <trkpt lat="43.80911" lon="7.16117">
        <ele>714</ele>
        <time>2016-08-31T17:32:28.000Z</time>
      </trkpt>
      <trkpt lat="43.80907" lon="7.16128">
        <ele>711</ele>
        <time>2016-08-31T17:32:31.000Z</time>
      </trkpt>
      <trkpt lat="43.80897" lon="7.16153">
        <ele>711</ele>
        <time>2016-08-31T17:32:36.000Z</time>
      </trkpt>
      <trkpt lat="43.80891" lon="7.16163">
        <ele>710</ele>
        <time>2016-08-31T17:32:38.000Z</time>
      </trkpt>
      <trkpt lat="43.80886" lon="7.16175">
        <ele>711</ele>
        <time>2016-08-31T17:32:41.000Z</time>
      </trkpt>
      <trkpt lat="43.80873" lon="7.16191">
        <ele>708</ele>
        <time>2016-08-31T17:32:46.000Z</time>
      </trkpt>
      <trkpt lat="43.80864" lon="7.16204">
        <ele>702</ele>
        <time>2016-08-31T17:32:52.000Z</time>
      </trkpt>
      <trkpt lat="43.80868" lon="7.16221">
        <ele>699</ele>
        <time>2016-08-31T17:33:09.000Z</time>
      </trkpt>
      <trkpt lat="43.80877" lon="7.16229">
        <ele>698</ele>
        <time>2016-08-31T17:33:14.000Z</time>
      </trkpt>
      <trkpt lat="43.80888" lon="7.1623">
        <ele>697</ele>
        <time>2016-08-31T17:33:19.000Z</time>
      </trkpt>
      <trkpt lat="43.80882" lon="7.16241">
        <ele>691</ele>
        <time>2016-08-31T17:33:26.000Z</time>
      </trkpt>
      <trkpt lat="43.80883" lon="7.16254">
        <ele>690</ele>
        <time>2016-08-31T17:33:34.000Z</time>
      </trkpt>
      <trkpt lat="43.80874" lon="7.16256">
        <ele>688</ele>
        <time>2016-08-31T17:33:40.000Z</time>
      </trkpt>
      <trkpt lat="43.80862" lon="7.1625">
        <ele>686</ele>
        <time>2016-08-31T17:33:45.000Z</time>
      </trkpt>
      <trkpt lat="43.80852" lon="7.16245">
        <ele>683</ele>
        <time>2016-08-31T17:34:26.000Z</time>
      </trkpt>
      <trkpt lat="43.80842" lon="7.16239">
        <ele>679</ele>
        <time>2016-08-31T17:34:44.000Z</time>
      </trkpt>
      <trkpt lat="43.80831" lon="7.16238">
        <ele>677</ele>
        <time>2016-08-31T17:35:04.000Z</time>
      </trkpt>
      <trkpt lat="43.80821" lon="7.16235">
        <ele>674</ele>
        <time>2016-08-31T17:35:11.000Z</time>
      </trkpt>
      <trkpt lat="43.8081" lon="7.1623">
        <ele>670</ele>
        <time>2016-08-31T17:35:17.000Z</time>
      </trkpt>
      <trkpt lat="43.808" lon="7.16228">
        <ele>668</ele>
        <time>2016-08-31T17:35:22.000Z</time>
      </trkpt>
      <trkpt lat="43.8079" lon="7.16227">
        <ele>666</ele>
        <time>2016-08-31T17:35:27.000Z</time>
      </trkpt>
      <trkpt lat="43.80778" lon="7.16226">
        <ele>664</ele>
        <time>2016-08-31T17:35:33.000Z</time>
      </trkpt>
      <trkpt lat="43.80767" lon="7.16225">
        <ele>662</ele>
        <time>2016-08-31T17:35:38.000Z</time>
      </trkpt>
      <trkpt lat="43.80751" lon="7.16224">
        <ele>659</ele>
        <time>2016-08-31T17:35:44.000Z</time>
      </trkpt>
      <trkpt lat="43.80738" lon="7.16227">
        <ele>656</ele>
        <time>2016-08-31T17:35:51.000Z</time>
      </trkpt>
      <trkpt lat="43.80727" lon="7.16227">
        <ele>654</ele>
        <time>2016-08-31T17:35:56.000Z</time>
      </trkpt>
      <trkpt lat="43.80715" lon="7.16224">
        <ele>652</ele>
        <time>2016-08-31T17:36:06.000Z</time>
      </trkpt>
      <trkpt lat="43.80703" lon="7.1622">
        <ele>650</ele>
        <time>2016-08-31T17:36:12.000Z</time>
      </trkpt>
      <trkpt lat="43.80692" lon="7.16218">
        <ele>645</ele>
        <time>2016-08-31T17:36:17.000Z</time>
      </trkpt>
      <trkpt lat="43.80681" lon="7.16215">
        <ele>644</ele>
        <time>2016-08-31T17:36:22.000Z</time>
      </trkpt>
      <trkpt lat="43.8067" lon="7.16214">
        <ele>642</ele>
        <time>2016-08-31T17:36:44.000Z</time>
      </trkpt>
      <trkpt lat="43.80661" lon="7.16219">
        <ele>637</ele>
        <time>2016-08-31T17:37:08.000Z</time>
      </trkpt>
      <trkpt lat="43.80652" lon="7.16223">
        <ele>631</ele>
        <time>2016-08-31T17:37:23.000Z</time>
      </trkpt>
      <trkpt lat="43.80645" lon="7.1623">
        <ele>631</ele>
        <time>2016-08-31T17:37:32.000Z</time>
      </trkpt>
      <trkpt lat="43.80658" lon="7.16242">
        <ele>626</ele>
        <time>2016-08-31T17:37:40.000Z</time>
      </trkpt>
      <trkpt lat="43.80674" lon="7.16264">
        <ele>621</ele>
        <time>2016-08-31T17:37:45.000Z</time>
      </trkpt>
      <trkpt lat="43.80684" lon="7.16281">
        <ele>616</ele>
        <time>2016-08-31T17:37:49.000Z</time>
      </trkpt>
      <trkpt lat="43.80689" lon="7.16295">
        <ele>615</ele>
        <time>2016-08-31T17:37:52.000Z</time>
      </trkpt>
      <trkpt lat="43.80689" lon="7.16308">
        <ele>613</ele>
        <time>2016-08-31T17:37:56.000Z</time>
      </trkpt>
      <trkpt lat="43.80697" lon="7.16322">
        <ele>610</ele>
        <time>2016-08-31T17:38:02.000Z</time>
      </trkpt>
      <trkpt lat="43.80708" lon="7.1633">
        <ele>606</ele>
        <time>2016-08-31T17:38:08.000Z</time>
      </trkpt>
      <trkpt lat="43.80719" lon="7.16332">
        <ele>602</ele>
        <time>2016-08-31T17:38:14.000Z</time>
      </trkpt>
      <trkpt lat="43.80727" lon="7.16349">
        <ele>598</ele>
        <time>2016-08-31T17:38:20.000Z</time>
      </trkpt>
      <trkpt lat="43.80734" lon="7.16359">
        <ele>596</ele>
        <time>2016-08-31T17:38:23.000Z</time>
      </trkpt>
      <trkpt lat="43.80741" lon="7.16368">
        <ele>594</ele>
        <time>2016-08-31T17:38:26.000Z</time>
      </trkpt>
      <trkpt lat="43.80749" lon="7.16375">
        <ele>592</ele>
        <time>2016-08-31T17:38:29.000Z</time>
      </trkpt>
      <trkpt lat="43.80762" lon="7.16385">
        <ele>591</ele>
        <time>2016-08-31T17:38:33.000Z</time>
      </trkpt>
      <trkpt lat="43.80769" lon="7.16393">
        <ele>589</ele>
        <time>2016-08-31T17:38:36.000Z</time>
      </trkpt>
      <trkpt lat="43.80772" lon="7.16406">
        <ele>586</ele>
        <time>2016-08-31T17:38:41.000Z</time>
      </trkpt>
      <trkpt lat="43.80768" lon="7.16419">
        <ele>582</ele>
        <time>2016-08-31T17:39:09.000Z</time>
      </trkpt>
      <trkpt lat="43.80775" lon="7.16429">
        <ele>578</ele>
        <time>2016-08-31T17:39:49.000Z</time>
      </trkpt>
      <trkpt lat="43.80786" lon="7.16445">
        <ele>575</ele>
        <time>2016-08-31T17:39:54.000Z</time>
      </trkpt>
      <trkpt lat="43.808" lon="7.16466">
        <ele>572</ele>
        <time>2016-08-31T17:39:59.000Z</time>
      </trkpt>
      <trkpt lat="43.80807" lon="7.16486">
        <ele>568</ele>
        <time>2016-08-31T17:40:04.000Z</time>
      </trkpt>
      <trkpt lat="43.80819" lon="7.16505">
        <ele>567</ele>
        <time>2016-08-31T17:40:09.000Z</time>
      </trkpt>
      <trkpt lat="43.80826" lon="7.16531">
        <ele>560</ele>
        <time>2016-08-31T17:40:17.000Z</time>
      </trkpt>
      <trkpt lat="43.8083" lon="7.16553">
        <ele>555</ele>
        <time>2016-08-31T17:40:21.000Z</time>
      </trkpt>
      <trkpt lat="43.80831" lon="7.16571">
        <ele>551</ele>
        <time>2016-08-31T17:40:24.000Z</time>
      </trkpt>
      <trkpt lat="43.80834" lon="7.16587">
        <ele>549</ele>
        <time>2016-08-31T17:40:26.000Z</time>
      </trkpt>
      <trkpt lat="43.8084" lon="7.16613">
        <ele>546</ele>
        <time>2016-08-31T17:40:29.000Z</time>
      </trkpt>
      <trkpt lat="43.80845" lon="7.16628">
        <ele>544</ele>
        <time>2016-08-31T17:40:31.000Z</time>
      </trkpt>
      <trkpt lat="43.80851" lon="7.16643">
        <ele>542</ele>
        <time>2016-08-31T17:40:33.000Z</time>
      </trkpt>
      <trkpt lat="43.80858" lon="7.16661">
        <ele>541</ele>
        <time>2016-08-31T17:40:35.000Z</time>
      </trkpt>
      <trkpt lat="43.80886" lon="7.16693">
        <ele>540</ele>
        <time>2016-08-31T17:40:40.000Z</time>
      </trkpt>
      <trkpt lat="43.80896" lon="7.16715">
        <ele>539</ele>
        <time>2016-08-31T17:40:43.000Z</time>
      </trkpt>
      <trkpt lat="43.80907" lon="7.16739">
        <ele>537</ele>
        <time>2016-08-31T17:40:46.000Z</time>
      </trkpt>
      <trkpt lat="43.80919" lon="7.16754">
        <ele>535</ele>
        <time>2016-08-31T17:40:49.000Z</time>
      </trkpt>
      <trkpt lat="43.80927" lon="7.16764">
        <ele>533</ele>
        <time>2016-08-31T17:40:51.000Z</time>
      </trkpt>
      <trkpt lat="43.80934" lon="7.16782">
        <ele>530</ele>
        <time>2016-08-31T17:40:54.000Z</time>
      </trkpt>
      <trkpt lat="43.80931" lon="7.16802">
        <ele>526</ele>
        <time>2016-08-31T17:40:57.000Z</time>
      </trkpt>
      <trkpt lat="43.80925" lon="7.16815">
        <ele>523</ele>
        <time>2016-08-31T17:40:59.000Z</time>
      </trkpt>
      <trkpt lat="43.80917" lon="7.16827">
        <ele>521</ele>
        <time>2016-08-31T17:41:01.000Z</time>
      </trkpt>
      <trkpt lat="43.80908" lon="7.16841">
        <ele>518</ele>
        <time>2016-08-31T17:41:04.000Z</time>
      </trkpt>
      <trkpt lat="43.80895" lon="7.16845">
        <ele>516</ele>
        <time>2016-08-31T17:41:10.000Z</time>
      </trkpt>
      <trkpt lat="43.80885" lon="7.16829">
        <ele>515</ele>
        <time>2016-08-31T17:41:15.000Z</time>
      </trkpt>
      <trkpt lat="43.80877" lon="7.1682">
        <ele>515</ele>
        <time>2016-08-31T17:41:18.000Z</time>
      </trkpt>
      <trkpt lat="43.80861" lon="7.16803">
        <ele>514</ele>
        <time>2016-08-31T17:41:23.000Z</time>
      </trkpt>
      <trkpt lat="43.80851" lon="7.16791">
        <ele>514</ele>
        <time>2016-08-31T17:41:26.000Z</time>
      </trkpt>
      <trkpt lat="43.80841" lon="7.1678">
        <ele>513</ele>
        <time>2016-08-31T17:41:29.000Z</time>
      </trkpt>
      <trkpt lat="43.80831" lon="7.16768">
        <ele>513</ele>
        <time>2016-08-31T17:41:32.000Z</time>
      </trkpt>
      <trkpt lat="43.80818" lon="7.16758">
        <ele>512</ele>
        <time>2016-08-31T17:41:35.000Z</time>
      </trkpt>
      <trkpt lat="43.80804" lon="7.16747">
        <ele>510</ele>
        <time>2016-08-31T17:41:38.000Z</time>
      </trkpt>
      <trkpt lat="43.80789" lon="7.16736">
        <ele>509</ele>
        <time>2016-08-31T17:41:41.000Z</time>
      </trkpt>
      <trkpt lat="43.8076" lon="7.16718">
        <ele>505</ele>
        <time>2016-08-31T17:41:46.000Z</time>
      </trkpt>
      <trkpt lat="43.8075" lon="7.16707">
        <ele>505</ele>
        <time>2016-08-31T17:41:48.000Z</time>
      </trkpt>
      <trkpt lat="43.80734" lon="7.16689">
        <ele>504</ele>
        <time>2016-08-31T17:41:51.000Z</time>
      </trkpt>
      <trkpt lat="43.80725" lon="7.16678">
        <ele>504</ele>
        <time>2016-08-31T17:41:53.000Z</time>
      </trkpt>
      <trkpt lat="43.80716" lon="7.16666">
        <ele>504</ele>
        <time>2016-08-31T17:41:55.000Z</time>
      </trkpt>
      <trkpt lat="43.80704" lon="7.16651">
        <ele>504</ele>
        <time>2016-08-31T17:41:58.000Z</time>
      </trkpt>
      <trkpt lat="43.80696" lon="7.16646">
        <ele>504</ele>
        <time>2016-08-31T17:42:00.000Z</time>
      </trkpt>
      <trkpt lat="43.80681" lon="7.16648">
        <ele>503</ele>
        <time>2016-08-31T17:42:03.000Z</time>
      </trkpt>
      <trkpt lat="43.80672" lon="7.16651">
        <ele>503</ele>
        <time>2016-08-31T17:42:05.000Z</time>
      </trkpt>
      <trkpt lat="43.80658" lon="7.16657">
        <ele>503</ele>
        <time>2016-08-31T17:42:08.000Z</time>
      </trkpt>
      <trkpt lat="43.80647" lon="7.16666">
        <ele>503</ele>
        <time>2016-08-31T17:42:11.000Z</time>
      </trkpt>
      <trkpt lat="43.80632" lon="7.16672">
        <ele>503</ele>
        <time>2016-08-31T17:42:14.000Z</time>
      </trkpt>
      <trkpt lat="43.80617" lon="7.16668">
        <ele>501</ele>
        <time>2016-08-31T17:42:17.000Z</time>
      </trkpt>
      <trkpt lat="43.80596" lon="7.16661">
        <ele>501</ele>
        <time>2016-08-31T17:42:22.000Z</time>
      </trkpt>
      <trkpt lat="43.80583" lon="7.16658">
        <ele>501</ele>
        <time>2016-08-31T17:42:25.000Z</time>
      </trkpt>
      <trkpt lat="43.80573" lon="7.16662">
        <ele>502</ele>
        <time>2016-08-31T17:42:28.000Z</time>
      </trkpt>
      <trkpt lat="43.80565" lon="7.16679">
        <ele>503</ele>
        <time>2016-08-31T17:42:31.000Z</time>
      </trkpt>
      <trkpt lat="43.8056" lon="7.16696">
        <ele>502</ele>
        <time>2016-08-31T17:42:34.000Z</time>
      </trkpt>
      <trkpt lat="43.80553" lon="7.16713">
        <ele>502</ele>
        <time>2016-08-31T17:42:37.000Z</time>
      </trkpt>
      <trkpt lat="43.8055" lon="7.16735">
        <ele>503</ele>
        <time>2016-08-31T17:42:41.000Z</time>
      </trkpt>
      <trkpt lat="43.80543" lon="7.16758">
        <ele>503</ele>
        <time>2016-08-31T17:42:46.000Z</time>
      </trkpt>
      <trkpt lat="43.80539" lon="7.1677">
        <ele>504</ele>
        <time>2016-08-31T17:42:49.000Z</time>
      </trkpt>
      <trkpt lat="43.80536" lon="7.16782">
        <ele>504</ele>
        <time>2016-08-31T17:42:52.000Z</time>
      </trkpt>
      <trkpt lat="43.80531" lon="7.16803">
        <ele>504</ele>
        <time>2016-08-31T17:42:57.000Z</time>
      </trkpt>
      <trkpt lat="43.80529" lon="7.16818">
        <ele>505</ele>
        <time>2016-08-31T17:43:00.000Z</time>
      </trkpt>
      <trkpt lat="43.80525" lon="7.16829">
        <ele>505</ele>
        <time>2016-08-31T17:43:03.000Z</time>
      </trkpt>
      <trkpt lat="43.8052" lon="7.16841">
        <ele>506</ele>
        <time>2016-08-31T17:43:06.000Z</time>
      </trkpt>
      <trkpt lat="43.80509" lon="7.16859">
        <ele>508</ele>
        <time>2016-08-31T17:43:11.000Z</time>
      </trkpt>
      <trkpt lat="43.80504" lon="7.16874">
        <ele>507</ele>
        <time>2016-08-31T17:43:14.000Z</time>
      </trkpt>
      <trkpt lat="43.80498" lon="7.16889">
        <ele>507</ele>
        <time>2016-08-31T17:43:18.000Z</time>
      </trkpt>
      <trkpt lat="43.8049" lon="7.16911">
        <ele>509</ele>
        <time>2016-08-31T17:43:23.000Z</time>
      </trkpt>
      <trkpt lat="43.80485" lon="7.16921">
        <ele>507</ele>
        <time>2016-08-31T17:43:26.000Z</time>
      </trkpt>
      <trkpt lat="43.80481" lon="7.16935">
        <ele>506</ele>
        <time>2016-08-31T17:43:29.000Z</time>
      </trkpt>
      <trkpt lat="43.80484" lon="7.1695">
        <ele>507</ele>
        <time>2016-08-31T17:43:32.000Z</time>
      </trkpt>
      <trkpt lat="43.80481" lon="7.16964">
        <ele>508</ele>
        <time>2016-08-31T17:43:35.000Z</time>
      </trkpt>
      <trkpt lat="43.80474" lon="7.16984">
        <ele>510</ele>
        <time>2016-08-31T17:43:40.000Z</time>
      </trkpt>
      <trkpt lat="43.80464" lon="7.17003">
        <ele>511</ele>
        <time>2016-08-31T17:43:46.000Z</time>
      </trkpt>
      <trkpt lat="43.80458" lon="7.17012">
        <ele>512</ele>
        <time>2016-08-31T17:43:49.000Z</time>
      </trkpt>
      <trkpt lat="43.80452" lon="7.17022">
        <ele>514</ele>
        <time>2016-08-31T17:43:52.000Z</time>
      </trkpt>
      <trkpt lat="43.80446" lon="7.17032">
        <ele>515</ele>
        <time>2016-08-31T17:43:55.000Z</time>
      </trkpt>
      <trkpt lat="43.80431" lon="7.1705">
        <ele>515</ele>
        <time>2016-08-31T17:44:01.000Z</time>
      </trkpt>
      <trkpt lat="43.80419" lon="7.17067">
        <ele>514</ele>
        <time>2016-08-31T17:44:06.000Z</time>
      </trkpt>
      <trkpt lat="43.80413" lon="7.17083">
        <ele>514</ele>
        <time>2016-08-31T17:44:10.000Z</time>
      </trkpt>
      <trkpt lat="43.8041" lon="7.17095">
        <ele>514</ele>
        <time>2016-08-31T17:44:13.000Z</time>
      </trkpt>
      <trkpt lat="43.80408" lon="7.17109">
        <ele>512</ele>
        <time>2016-08-31T17:44:16.000Z</time>
      </trkpt>
      <trkpt lat="43.80405" lon="7.17122">
        <ele>511</ele>
        <time>2016-08-31T17:44:19.000Z</time>
      </trkpt>
      <trkpt lat="43.80404" lon="7.17141">
        <ele>511</ele>
        <time>2016-08-31T17:44:23.000Z</time>
      </trkpt>
      <trkpt lat="43.80401" lon="7.17159">
        <ele>513</ele>
        <time>2016-08-31T17:44:27.000Z</time>
      </trkpt>
      <trkpt lat="43.80398" lon="7.17171">
        <ele>513</ele>
        <time>2016-08-31T17:44:30.000Z</time>
      </trkpt>
      <trkpt lat="43.80394" lon="7.17188">
        <ele>511</ele>
        <time>2016-08-31T17:44:33.000Z</time>
      </trkpt>
      <trkpt lat="43.8039" lon="7.172">
        <ele>512</ele>
        <time>2016-08-31T17:44:35.000Z</time>
      </trkpt>
      <trkpt lat="43.80386" lon="7.17218">
        <ele>512</ele>
        <time>2016-08-31T17:44:38.000Z</time>
      </trkpt>
      <trkpt lat="43.80382" lon="7.17243">
        <ele>513</ele>
        <time>2016-08-31T17:44:43.000Z</time>
      </trkpt>
      <trkpt lat="43.80376" lon="7.1726">
        <ele>514</ele>
        <time>2016-08-31T17:44:47.000Z</time>
      </trkpt>
      <trkpt lat="43.80367" lon="7.17278">
        <ele>515</ele>
        <time>2016-08-31T17:44:52.000Z</time>
      </trkpt>
      <trkpt lat="43.80362" lon="7.1729">
        <ele>515</ele>
        <time>2016-08-31T17:44:55.000Z</time>
      </trkpt>
      <trkpt lat="43.80352" lon="7.17313">
        <ele>516</ele>
        <time>2016-08-31T17:45:01.000Z</time>
      </trkpt>
      <trkpt lat="43.80345" lon="7.17321">
        <ele>516</ele>
        <time>2016-08-31T17:45:04.000Z</time>
      </trkpt>
      <trkpt lat="43.80335" lon="7.17328">
        <ele>516</ele>
        <time>2016-08-31T17:45:07.000Z</time>
      </trkpt>
      <trkpt lat="43.80324" lon="7.17335">
        <ele>517</ele>
        <time>2016-08-31T17:45:10.000Z</time>
      </trkpt>
      <trkpt lat="43.80313" lon="7.17339">
        <ele>518</ele>
        <time>2016-08-31T17:45:13.000Z</time>
      </trkpt>
      <trkpt lat="43.80304" lon="7.17342">
        <ele>517</ele>
        <time>2016-08-31T17:45:16.000Z</time>
      </trkpt>
      <trkpt lat="43.80298" lon="7.17358">
        <ele>518</ele>
        <time>2016-08-31T17:45:21.000Z</time>
      </trkpt>
      <trkpt lat="43.80297" lon="7.17372">
        <ele>518</ele>
        <time>2016-08-31T17:45:24.000Z</time>
      </trkpt>
      <trkpt lat="43.80286" lon="7.17398">
        <ele>519</ele>
        <time>2016-08-31T17:45:29.000Z</time>
      </trkpt>
      <trkpt lat="43.8028" lon="7.17409">
        <ele>517</ele>
        <time>2016-08-31T17:45:31.000Z</time>
      </trkpt>
      <trkpt lat="43.80272" lon="7.17422">
        <ele>516</ele>
        <time>2016-08-31T17:45:34.000Z</time>
      </trkpt>
      <trkpt lat="43.80262" lon="7.17447">
        <ele>515</ele>
        <time>2016-08-31T17:45:39.000Z</time>
      </trkpt>
      <trkpt lat="43.80256" lon="7.17462">
        <ele>515</ele>
        <time>2016-08-31T17:45:42.000Z</time>
      </trkpt>
      <trkpt lat="43.80247" lon="7.17483">
        <ele>516</ele>
        <time>2016-08-31T17:45:47.000Z</time>
      </trkpt>
      <trkpt lat="43.80237" lon="7.17504">
        <ele>517</ele>
        <time>2016-08-31T17:45:52.000Z</time>
      </trkpt>
      <trkpt lat="43.8023" lon="7.17516">
        <ele>516</ele>
        <time>2016-08-31T17:45:55.000Z</time>
      </trkpt>
      <trkpt lat="43.80222" lon="7.17534">
        <ele>518</ele>
        <time>2016-08-31T17:46:00.000Z</time>
      </trkpt>
      <trkpt lat="43.80218" lon="7.17547">
        <ele>518</ele>
        <time>2016-08-31T17:46:03.000Z</time>
      </trkpt>
      <trkpt lat="43.80215" lon="7.17561">
        <ele>518</ele>
        <time>2016-08-31T17:46:06.000Z</time>
      </trkpt>
      <trkpt lat="43.80209" lon="7.17574">
        <ele>518</ele>
        <time>2016-08-31T17:46:09.000Z</time>
      </trkpt>
      <trkpt lat="43.802" lon="7.17598">
        <ele>518</ele>
        <time>2016-08-31T17:46:14.000Z</time>
      </trkpt>
      <trkpt lat="43.80193" lon="7.17613">
        <ele>518</ele>
        <time>2016-08-31T17:46:17.000Z</time>
      </trkpt>
      <trkpt lat="43.80186" lon="7.17627">
        <ele>519</ele>
        <time>2016-08-31T17:46:20.000Z</time>
      </trkpt>
      <trkpt lat="43.80178" lon="7.17639">
        <ele>517</ele>
        <time>2016-08-31T17:46:23.000Z</time>
      </trkpt>
      <trkpt lat="43.8017" lon="7.1765">
        <ele>518</ele>
        <time>2016-08-31T17:46:26.000Z</time>
      </trkpt>
      <trkpt lat="43.80162" lon="7.17662">
        <ele>518</ele>
        <time>2016-08-31T17:46:29.000Z</time>
      </trkpt>
      <trkpt lat="43.80154" lon="7.17674">
        <ele>519</ele>
        <time>2016-08-31T17:46:32.000Z</time>
      </trkpt>
      <trkpt lat="43.80148" lon="7.17687">
        <ele>519</ele>
        <time>2016-08-31T17:46:35.000Z</time>
      </trkpt>
      <trkpt lat="43.80141" lon="7.177">
        <ele>518</ele>
        <time>2016-08-31T17:46:38.000Z</time>
      </trkpt>
      <trkpt lat="43.80137" lon="7.17717">
        <ele>519</ele>
        <time>2016-08-31T17:46:41.000Z</time>
      </trkpt>
      <trkpt lat="43.80131" lon="7.17742">
        <ele>518</ele>
        <time>2016-08-31T17:46:45.000Z</time>
      </trkpt>
      <trkpt lat="43.8013" lon="7.17754">
        <ele>517</ele>
        <time>2016-08-31T17:46:47.000Z</time>
      </trkpt>
      <trkpt lat="43.8013" lon="7.17772">
        <ele>517</ele>
        <time>2016-08-31T17:46:50.000Z</time>
      </trkpt>
      <trkpt lat="43.80129" lon="7.17798">
        <ele>518</ele>
        <time>2016-08-31T17:46:55.000Z</time>
      </trkpt>
      <trkpt lat="43.80129" lon="7.17814">
        <ele>518</ele>
        <time>2016-08-31T17:46:58.000Z</time>
      </trkpt>
      <trkpt lat="43.80128" lon="7.17827">
        <ele>519</ele>
        <time>2016-08-31T17:47:01.000Z</time>
      </trkpt>
      <trkpt lat="43.80127" lon="7.17846">
        <ele>520</ele>
        <time>2016-08-31T17:47:06.000Z</time>
      </trkpt>
      <trkpt lat="43.80128" lon="7.17865">
        <ele>521</ele>
        <time>2016-08-31T17:47:10.000Z</time>
      </trkpt>
      <trkpt lat="43.80129" lon="7.1788">
        <ele>521</ele>
        <time>2016-08-31T17:47:13.000Z</time>
      </trkpt>
      <trkpt lat="43.8013" lon="7.17895">
        <ele>519</ele>
        <time>2016-08-31T17:47:16.000Z</time>
      </trkpt>
      <trkpt lat="43.80131" lon="7.17909">
        <ele>518</ele>
        <time>2016-08-31T17:47:19.000Z</time>
      </trkpt>
      <trkpt lat="43.80126" lon="7.1793">
        <ele>516</ele>
        <time>2016-08-31T17:47:23.000Z</time>
      </trkpt>
      <trkpt lat="43.80116" lon="7.17943">
        <ele>517</ele>
        <time>2016-08-31T17:47:28.000Z</time>
      </trkpt>
      <trkpt lat="43.80107" lon="7.17951">
        <ele>515</ele>
        <time>2016-08-31T17:47:31.000Z</time>
      </trkpt>
      <trkpt lat="43.80094" lon="7.17958">
        <ele>515</ele>
        <time>2016-08-31T17:47:34.000Z</time>
      </trkpt>
      <trkpt lat="43.80083" lon="7.17963">
        <ele>514</ele>
        <time>2016-08-31T17:47:36.000Z</time>
      </trkpt>
      <trkpt lat="43.80065" lon="7.17967">
        <ele>514</ele>
        <time>2016-08-31T17:47:39.000Z</time>
      </trkpt>
      <trkpt lat="43.80047" lon="7.17972">
        <ele>512</ele>
        <time>2016-08-31T17:47:42.000Z</time>
      </trkpt>
      <trkpt lat="43.80027" lon="7.17981">
        <ele>510</ele>
        <time>2016-08-31T17:47:45.000Z</time>
      </trkpt>
      <trkpt lat="43.80005" lon="7.17991">
        <ele>507</ele>
        <time>2016-08-31T17:47:48.000Z</time>
      </trkpt>
      <trkpt lat="43.79989" lon="7.18001">
        <ele>506</ele>
        <time>2016-08-31T17:47:50.000Z</time>
      </trkpt>
      <trkpt lat="43.79969" lon="7.18031">
        <ele>504</ele>
        <time>2016-08-31T17:47:53.000Z</time>
      </trkpt>
      <trkpt lat="43.79958" lon="7.18054">
        <ele>503</ele>
        <time>2016-08-31T17:47:55.000Z</time>
      </trkpt>
      <trkpt lat="43.79946" lon="7.18093">
        <ele>501</ele>
        <time>2016-08-31T17:47:58.000Z</time>
      </trkpt>
      <trkpt lat="43.79937" lon="7.18128">
        <ele>499</ele>
        <time>2016-08-31T17:48:01.000Z</time>
      </trkpt>
      <trkpt lat="43.79927" lon="7.18155">
        <ele>496</ele>
        <time>2016-08-31T17:48:04.000Z</time>
      </trkpt>
      <trkpt lat="43.79913" lon="7.18163">
        <ele>496</ele>
        <time>2016-08-31T17:48:07.000Z</time>
      </trkpt>
      <trkpt lat="43.79898" lon="7.1815">
        <ele>494</ele>
        <time>2016-08-31T17:48:10.000Z</time>
      </trkpt>
      <trkpt lat="43.79889" lon="7.18135">
        <ele>494</ele>
        <time>2016-08-31T17:48:12.000Z</time>
      </trkpt>
      <trkpt lat="43.79874" lon="7.1811">
        <ele>491</ele>
        <time>2016-08-31T17:48:15.000Z</time>
      </trkpt>
      <trkpt lat="43.79855" lon="7.18085">
        <ele>488</ele>
        <time>2016-08-31T17:48:18.000Z</time>
      </trkpt>
      <trkpt lat="43.79827" lon="7.18077">
        <ele>486</ele>
        <time>2016-08-31T17:48:21.000Z</time>
      </trkpt>
      <trkpt lat="43.798" lon="7.18071">
        <ele>485</ele>
        <time>2016-08-31T17:48:24.000Z</time>
      </trkpt>
      <trkpt lat="43.79781" lon="7.18067">
        <ele>484</ele>
        <time>2016-08-31T17:48:27.000Z</time>
      </trkpt>
      <trkpt lat="43.79773" lon="7.18085">
        <ele>483</ele>
        <time>2016-08-31T17:48:30.000Z</time>
      </trkpt>
      <trkpt lat="43.79775" lon="7.18119">
        <ele>482</ele>
        <time>2016-08-31T17:48:34.000Z</time>
      </trkpt>
      <trkpt lat="43.79766" lon="7.18147">
        <ele>480</ele>
        <time>2016-08-31T17:48:37.000Z</time>
      </trkpt>
      <trkpt lat="43.79749" lon="7.18167">
        <ele>477</ele>
        <time>2016-08-31T17:48:40.000Z</time>
      </trkpt>
      <trkpt lat="43.79723" lon="7.1817">
        <ele>475</ele>
        <time>2016-08-31T17:48:43.000Z</time>
      </trkpt>
      <trkpt lat="43.79695" lon="7.18161">
        <ele>472</ele>
        <time>2016-08-31T17:48:46.000Z</time>
      </trkpt>
      <trkpt lat="43.79675" lon="7.18154">
        <ele>471</ele>
        <time>2016-08-31T17:48:48.000Z</time>
      </trkpt>
      <trkpt lat="43.79644" lon="7.18146">
        <ele>469</ele>
        <time>2016-08-31T17:48:51.000Z</time>
      </trkpt>
      <trkpt lat="43.79613" lon="7.18142">
        <ele>468</ele>
        <time>2016-08-31T17:48:54.000Z</time>
      </trkpt>
      <trkpt lat="43.79575" lon="7.18158">
        <ele>464</ele>
        <time>2016-08-31T17:48:58.000Z</time>
      </trkpt>
      <trkpt lat="43.79557" lon="7.18173">
        <ele>463</ele>
        <time>2016-08-31T17:49:00.000Z</time>
      </trkpt>
      <trkpt lat="43.79539" lon="7.18187">
        <ele>462</ele>
        <time>2016-08-31T17:49:02.000Z</time>
      </trkpt>
      <trkpt lat="43.79522" lon="7.18202">
        <ele>461</ele>
        <time>2016-08-31T17:49:04.000Z</time>
      </trkpt>
      <trkpt lat="43.79493" lon="7.1822">
        <ele>459</ele>
        <time>2016-08-31T17:49:07.000Z</time>
      </trkpt>
      <trkpt lat="43.79467" lon="7.18242">
        <ele>456</ele>
        <time>2016-08-31T17:49:10.000Z</time>
      </trkpt>
      <trkpt lat="43.7945" lon="7.18259">
        <ele>454</ele>
        <time>2016-08-31T17:49:12.000Z</time>
      </trkpt>
      <trkpt lat="43.79423" lon="7.18287">
        <ele>449</ele>
        <time>2016-08-31T17:49:15.000Z</time>
      </trkpt>
      <trkpt lat="43.79406" lon="7.18305">
        <ele>448</ele>
        <time>2016-08-31T17:49:17.000Z</time>
      </trkpt>
      <trkpt lat="43.79384" lon="7.18334">
        <ele>446</ele>
        <time>2016-08-31T17:49:20.000Z</time>
      </trkpt>
      <trkpt lat="43.79361" lon="7.18349">
        <ele>444</ele>
        <time>2016-08-31T17:49:23.000Z</time>
      </trkpt>
      <trkpt lat="43.79333" lon="7.18364">
        <ele>440</ele>
        <time>2016-08-31T17:49:26.000Z</time>
      </trkpt>
      <trkpt lat="43.79302" lon="7.18378">
        <ele>438</ele>
        <time>2016-08-31T17:49:29.000Z</time>
      </trkpt>
      <trkpt lat="43.79274" lon="7.18398">
        <ele>436</ele>
        <time>2016-08-31T17:49:32.000Z</time>
      </trkpt>
      <trkpt lat="43.79247" lon="7.18416">
        <ele>434</ele>
        <time>2016-08-31T17:49:35.000Z</time>
      </trkpt>
      <trkpt lat="43.79218" lon="7.18424">
        <ele>432</ele>
        <time>2016-08-31T17:49:38.000Z</time>
      </trkpt>
      <trkpt lat="43.79189" lon="7.18428">
        <ele>428</ele>
        <time>2016-08-31T17:49:41.000Z</time>
      </trkpt>
      <trkpt lat="43.79157" lon="7.18436">
        <ele>425</ele>
        <time>2016-08-31T17:49:45.000Z</time>
      </trkpt>
      <trkpt lat="43.79137" lon="7.18435">
        <ele>424</ele>
        <time>2016-08-31T17:49:48.000Z</time>
      </trkpt>
      <trkpt lat="43.79123" lon="7.18429">
        <ele>424</ele>
        <time>2016-08-31T17:49:51.000Z</time>
      </trkpt>
      <trkpt lat="43.79113" lon="7.18423">
        <ele>424</ele>
        <time>2016-08-31T17:49:54.000Z</time>
      </trkpt>
      <trkpt lat="43.791" lon="7.18413">
        <ele>424</ele>
        <time>2016-08-31T17:49:58.000Z</time>
      </trkpt>
      <trkpt lat="43.79089" lon="7.18406">
        <ele>424</ele>
        <time>2016-08-31T17:50:01.000Z</time>
      </trkpt>
      <trkpt lat="43.79078" lon="7.184">
        <ele>424</ele>
        <time>2016-08-31T17:50:04.000Z</time>
      </trkpt>
      <trkpt lat="43.79066" lon="7.18394">
        <ele>424</ele>
        <time>2016-08-31T17:50:07.000Z</time>
      </trkpt>
      <trkpt lat="43.79049" lon="7.18388">
        <ele>425</ele>
        <time>2016-08-31T17:50:11.000Z</time>
      </trkpt>
      <trkpt lat="43.79038" lon="7.18384">
        <ele>427</ele>
        <time>2016-08-31T17:50:14.000Z</time>
      </trkpt>
      <trkpt lat="43.79024" lon="7.18378">
        <ele>427</ele>
        <time>2016-08-31T17:50:18.000Z</time>
      </trkpt>
      <trkpt lat="43.7901" lon="7.18374">
        <ele>428</ele>
        <time>2016-08-31T17:50:22.000Z</time>
      </trkpt>
      <trkpt lat="43.79001" lon="7.18371">
        <ele>427</ele>
        <time>2016-08-31T17:50:25.000Z</time>
      </trkpt>
      <trkpt lat="43.78987" lon="7.18365">
        <ele>428</ele>
        <time>2016-08-31T17:50:30.000Z</time>
      </trkpt>
      <trkpt lat="43.78979" lon="7.18361">
        <ele>428</ele>
        <time>2016-08-31T17:50:33.000Z</time>
      </trkpt>
      <trkpt lat="43.78968" lon="7.18356">
        <ele>429</ele>
        <time>2016-08-31T17:50:37.000Z</time>
      </trkpt>
      <trkpt lat="43.78953" lon="7.1835">
        <ele>428</ele>
        <time>2016-08-31T17:50:41.000Z</time>
      </trkpt>
      <trkpt lat="43.78944" lon="7.18347">
        <ele>428</ele>
        <time>2016-08-31T17:50:43.000Z</time>
      </trkpt>
      <trkpt lat="43.78935" lon="7.18337">
        <ele>426</ele>
        <time>2016-08-31T17:50:45.000Z</time>
      </trkpt>
      <trkpt lat="43.78924" lon="7.18321">
        <ele>426</ele>
        <time>2016-08-31T17:50:48.000Z</time>
      </trkpt>
      <trkpt lat="43.78915" lon="7.18306">
        <ele>426</ele>
        <time>2016-08-31T17:50:51.000Z</time>
      </trkpt>
      <trkpt lat="43.78902" lon="7.18287">
        <ele>427</ele>
        <time>2016-08-31T17:50:56.000Z</time>
      </trkpt>
      <trkpt lat="43.78893" lon="7.18277">
        <ele>427</ele>
        <time>2016-08-31T17:51:00.000Z</time>
      </trkpt>
      <trkpt lat="43.78886" lon="7.1827">
        <ele>428</ele>
        <time>2016-08-31T17:51:04.000Z</time>
      </trkpt>
      <trkpt lat="43.78877" lon="7.18258">
        <ele>429</ele>
        <time>2016-08-31T17:51:10.000Z</time>
      </trkpt>
      <trkpt lat="43.78868" lon="7.18246">
        <ele>429</ele>
        <time>2016-08-31T17:51:15.000Z</time>
      </trkpt>
      <trkpt lat="43.78862" lon="7.18233">
        <ele>431</ele>
        <time>2016-08-31T17:51:20.000Z</time>
      </trkpt>
      <trkpt lat="43.78854" lon="7.18218">
        <ele>432</ele>
        <time>2016-08-31T17:51:26.000Z</time>
      </trkpt>
      <trkpt lat="43.78851" lon="7.18205">
        <ele>435</ele>
        <time>2016-08-31T17:51:31.000Z</time>
      </trkpt>
      <trkpt lat="43.78854" lon="7.18193">
        <ele>437</ele>
        <time>2016-08-31T17:51:36.000Z</time>
      </trkpt>
      <trkpt lat="43.78863" lon="7.18181">
        <ele>438</ele>
        <time>2016-08-31T17:51:44.000Z</time>
      </trkpt>
      <trkpt lat="43.78872" lon="7.18173">
        <ele>443</ele>
        <time>2016-08-31T17:51:53.000Z</time>
      </trkpt>
      <trkpt lat="43.78883" lon="7.18165">
        <ele>443</ele>
        <time>2016-08-31T17:52:02.000Z</time>
      </trkpt>
      <trkpt lat="43.78891" lon="7.18157">
        <ele>445</ele>
        <time>2016-08-31T17:52:08.000Z</time>
      </trkpt>
      <trkpt lat="43.789" lon="7.18157">
        <ele>447</ele>
        <time>2016-08-31T17:52:14.000Z</time>
      </trkpt>
      <trkpt lat="43.78912" lon="7.18165">
        <ele>448</ele>
        <time>2016-08-31T17:52:23.000Z</time>
      </trkpt>
      <trkpt lat="43.78923" lon="7.18172">
        <ele>448</ele>
        <time>2016-08-31T17:52:31.000Z</time>
      </trkpt>
      <trkpt lat="43.78935" lon="7.18182">
        <ele>449</ele>
        <time>2016-08-31T17:52:39.000Z</time>
      </trkpt>
      <trkpt lat="43.78943" lon="7.18191">
        <ele>449</ele>
        <time>2016-08-31T17:52:45.000Z</time>
      </trkpt>
      <trkpt lat="43.78951" lon="7.18202">
        <ele>448</ele>
        <time>2016-08-31T17:52:53.000Z</time>
      </trkpt>
      <trkpt lat="43.78962" lon="7.182">
        <ele>449</ele>
        <time>2016-08-31T17:53:01.000Z</time>
      </trkpt>
      <trkpt lat="43.7897" lon="7.1819">
        <ele>452</ele>
        <time>2016-08-31T17:53:09.000Z</time>
      </trkpt>
      <trkpt lat="43.78978" lon="7.18178">
        <ele>455</ele>
        <time>2016-08-31T17:53:20.000Z</time>
      </trkpt>
      <trkpt lat="43.78987" lon="7.18176">
        <ele>457</ele>
        <time>2016-08-31T17:53:27.000Z</time>
      </trkpt>
      <trkpt lat="43.78996" lon="7.18181">
        <ele>458</ele>
        <time>2016-08-31T17:53:35.000Z</time>
      </trkpt>
      <trkpt lat="43.79007" lon="7.18186">
        <ele>459</ele>
        <time>2016-08-31T17:53:43.000Z</time>
      </trkpt>
      <trkpt lat="43.79014" lon="7.18195">
        <ele>460</ele>
        <time>2016-08-31T17:53:49.000Z</time>
      </trkpt>
      <trkpt lat="43.79025" lon="7.18204">
        <ele>463</ele>
        <time>2016-08-31T17:53:57.000Z</time>
      </trkpt>
      <trkpt lat="43.79034" lon="7.18215">
        <ele>462</ele>
        <time>2016-08-31T17:54:04.000Z</time>
      </trkpt>
      <trkpt lat="43.79044" lon="7.18224">
        <ele>462</ele>
        <time>2016-08-31T17:54:11.000Z</time>
      </trkpt>
      <trkpt lat="43.79057" lon="7.18232">
        <ele>464</ele>
        <time>2016-08-31T17:54:20.000Z</time>
      </trkpt>
      <trkpt lat="43.79065" lon="7.18235">
        <ele>467</ele>
        <time>2016-08-31T17:54:28.000Z</time>
      </trkpt>
      <trkpt lat="43.79075" lon="7.18235">
        <ele>467</ele>
        <time>2016-08-31T17:54:35.000Z</time>
      </trkpt>
      <trkpt lat="43.79069" lon="7.18223">
        <ele>470</ele>
        <time>2016-08-31T17:54:49.000Z</time>
      </trkpt>
      <trkpt lat="43.79059" lon="7.18214">
        <ele>471</ele>
        <time>2016-08-31T17:54:58.000Z</time>
      </trkpt>
      <trkpt lat="43.79051" lon="7.18203">
        <ele>473</ele>
        <time>2016-08-31T17:55:05.000Z</time>
      </trkpt>
      <trkpt lat="43.79048" lon="7.18188">
        <ele>473</ele>
        <time>2016-08-31T17:55:13.000Z</time>
      </trkpt>
      <trkpt lat="43.79046" lon="7.18174">
        <ele>477</ele>
        <time>2016-08-31T17:55:22.000Z</time>
      </trkpt>
      <trkpt lat="43.79042" lon="7.1816">
        <ele>479</ele>
        <time>2016-08-31T17:55:30.000Z</time>
      </trkpt>
      <trkpt lat="43.79035" lon="7.18144">
        <ele>480</ele>
        <time>2016-08-31T17:55:38.000Z</time>
      </trkpt>
      <trkpt lat="43.79026" lon="7.18132">
        <ele>480</ele>
        <time>2016-08-31T17:55:43.000Z</time>
      </trkpt>
      <trkpt lat="43.79014" lon="7.18117">
        <ele>478</ele>
        <time>2016-08-31T17:55:49.000Z</time>
      </trkpt>
      <trkpt lat="43.79002" lon="7.18103">
        <ele>475</ele>
        <time>2016-08-31T17:55:55.000Z</time>
      </trkpt>
      <trkpt lat="43.78995" lon="7.18095">
        <ele>476</ele>
        <time>2016-08-31T17:55:58.000Z</time>
      </trkpt>
      <trkpt lat="43.78986" lon="7.18087">
        <ele>473</ele>
        <time>2016-08-31T17:56:01.000Z</time>
      </trkpt>
      <trkpt lat="43.78973" lon="7.18075">
        <ele>472</ele>
        <time>2016-08-31T17:56:04.000Z</time>
      </trkpt>
      <trkpt lat="43.78959" lon="7.18059">
        <ele>471</ele>
        <time>2016-08-31T17:56:07.000Z</time>
      </trkpt>
      <trkpt lat="43.78952" lon="7.18042">
        <ele>473</ele>
        <time>2016-08-31T17:56:10.000Z</time>
      </trkpt>
      <trkpt lat="43.78945" lon="7.18021">
        <ele>476</ele>
        <time>2016-08-31T17:56:14.000Z</time>
      </trkpt>
      <trkpt lat="43.78944" lon="7.18006">
        <ele>478</ele>
        <time>2016-08-31T17:56:17.000Z</time>
      </trkpt>
      <trkpt lat="43.78944" lon="7.17993">
        <ele>480</ele>
        <time>2016-08-31T17:56:21.000Z</time>
      </trkpt>
      <trkpt lat="43.78944" lon="7.17981">
        <ele>482</ele>
        <time>2016-08-31T17:56:26.000Z</time>
      </trkpt>
      <trkpt lat="43.78944" lon="7.17962">
        <ele>486</ele>
        <time>2016-08-31T17:56:34.000Z</time>
      </trkpt>
      <trkpt lat="43.78948" lon="7.17946">
        <ele>488</ele>
        <time>2016-08-31T17:56:42.000Z</time>
      </trkpt>
      <trkpt lat="43.78951" lon="7.17934">
        <ele>490</ele>
        <time>2016-08-31T17:56:49.000Z</time>
      </trkpt>
      <trkpt lat="43.78955" lon="7.1792">
        <ele>491</ele>
        <time>2016-08-31T17:56:56.000Z</time>
      </trkpt>
      <trkpt lat="43.78952" lon="7.17905">
        <ele>492</ele>
        <time>2016-08-31T17:57:04.000Z</time>
      </trkpt>
      <trkpt lat="43.7895" lon="7.17893">
        <ele>492</ele>
        <time>2016-08-31T17:57:10.000Z</time>
      </trkpt>
      <trkpt lat="43.78944" lon="7.17874">
        <ele>492</ele>
        <time>2016-08-31T17:57:17.000Z</time>
      </trkpt>
      <trkpt lat="43.78939" lon="7.17861">
        <ele>492</ele>
        <time>2016-08-31T17:57:23.000Z</time>
      </trkpt>
      <trkpt lat="43.78937" lon="7.17837">
        <ele>490</ele>
        <time>2016-08-31T17:57:32.000Z</time>
      </trkpt>
      <trkpt lat="43.78933" lon="7.17825">
        <ele>489</ele>
        <time>2016-08-31T17:57:34.000Z</time>
      </trkpt>
      <trkpt lat="43.78928" lon="7.17805">
        <ele>489</ele>
        <time>2016-08-31T17:57:38.000Z</time>
      </trkpt>
      <trkpt lat="43.78925" lon="7.17787">
        <ele>489</ele>
        <time>2016-08-31T17:57:44.000Z</time>
      </trkpt>
      <trkpt lat="43.78918" lon="7.1777">
        <ele>492</ele>
        <time>2016-08-31T17:57:52.000Z</time>
      </trkpt>
      <trkpt lat="43.78912" lon="7.17756">
        <ele>492</ele>
        <time>2016-08-31T17:57:59.000Z</time>
      </trkpt>
      <trkpt lat="43.78907" lon="7.17746">
        <ele>493</ele>
        <time>2016-08-31T17:58:04.000Z</time>
      </trkpt>
      <trkpt lat="43.78899" lon="7.17739">
        <ele>494</ele>
        <time>2016-08-31T17:58:09.000Z</time>
      </trkpt>
      <trkpt lat="43.78888" lon="7.17729">
        <ele>494</ele>
        <time>2016-08-31T17:58:15.000Z</time>
      </trkpt>
      <trkpt lat="43.78878" lon="7.17722">
        <ele>494</ele>
        <time>2016-08-31T17:58:20.000Z</time>
      </trkpt>
      <trkpt lat="43.78868" lon="7.17713">
        <ele>494</ele>
        <time>2016-08-31T17:58:26.000Z</time>
      </trkpt>
      <trkpt lat="43.78862" lon="7.17702">
        <ele>495</ele>
        <time>2016-08-31T17:58:31.000Z</time>
      </trkpt>
      <trkpt lat="43.78859" lon="7.17685">
        <ele>497</ele>
        <time>2016-08-31T17:58:36.000Z</time>
      </trkpt>
      <trkpt lat="43.7885" lon="7.17669">
        <ele>497</ele>
        <time>2016-08-31T17:58:42.000Z</time>
      </trkpt>
      <trkpt lat="43.78841" lon="7.17649">
        <ele>496</ele>
        <time>2016-08-31T17:58:47.000Z</time>
      </trkpt>
      <trkpt lat="43.78833" lon="7.17632">
        <ele>497</ele>
        <time>2016-08-31T17:58:52.000Z</time>
      </trkpt>
      <trkpt lat="43.78824" lon="7.17618">
        <ele>497</ele>
        <time>2016-08-31T17:58:57.000Z</time>
      </trkpt>
      <trkpt lat="43.78816" lon="7.17603">
        <ele>499</ele>
        <time>2016-08-31T17:59:03.000Z</time>
      </trkpt>
      <trkpt lat="43.78807" lon="7.17591">
        <ele>498</ele>
        <time>2016-08-31T17:59:09.000Z</time>
      </trkpt>
      <trkpt lat="43.78795" lon="7.17575">
        <ele>498</ele>
        <time>2016-08-31T17:59:17.000Z</time>
      </trkpt>
      <trkpt lat="43.78785" lon="7.17563">
        <ele>500</ele>
        <time>2016-08-31T17:59:23.000Z</time>
      </trkpt>
      <trkpt lat="43.78776" lon="7.1755">
        <ele>500</ele>
        <time>2016-08-31T17:59:29.000Z</time>
      </trkpt>
      <trkpt lat="43.78775" lon="7.17537">
        <ele>501</ele>
        <time>2016-08-31T17:59:34.000Z</time>
      </trkpt>
      <trkpt lat="43.78778" lon="7.17524">
        <ele>503</ele>
        <time>2016-08-31T17:59:40.000Z</time>
      </trkpt>
      <trkpt lat="43.78783" lon="7.17512">
        <ele>506</ele>
        <time>2016-08-31T17:59:48.000Z</time>
      </trkpt>
      <trkpt lat="43.78792" lon="7.17505">
        <ele>508</ele>
        <time>2016-08-31T17:59:56.000Z</time>
      </trkpt>
      <trkpt lat="43.78795" lon="7.1749">
        <ele>509</ele>
        <time>2016-08-31T18:00:06.000Z</time>
      </trkpt>
    </trkseg>
  </trk>
</gpx>